Observation data for Lake Alan Henry on 08/14/2019      Previous  Date  Next       Current Mesonet Observations  Soil Data  Daily Summary Page  Observations in Plain Language
KAHS 140500Z 06007KT 29/19 A3005 RMK A01 T02910194  RH  056%=      5-min Rain = 0
KAHS 140501Z 06009G14KT 29/19 A3005 RMK A01 T02900194  RH  056%=      5-min Rain = 0
KAHS 140502Z 06008KT 29/19 A3005 RMK A01 T02900194  RH  056%=      5-min Rain = 0
KAHS 140503Z 06008KT 29/19 A3005 RMK A01 T02910194  RH  056%=      5-min Rain = 0
KAHS 140504Z 06007G12KT 29/19 A3005 RMK A01 T02900194  RH  056%=      5-min Rain = 0
KAHS 140505Z 06009KT 29/19 A3005 RMK A01 T02900194  RH  056%=      5-min Rain = 0
KAHS 140506Z 06009KT 29/19 A3005 RMK A01 T02900194  RH  056%=      5-min Rain = 0
KAHS 140507Z 06007KT 29/19 A3005 RMK A01 T02900194  RH  056%=      5-min Rain = 0
KAHS 140508Z 06008KT 29/19 A3005 RMK A01 T02900194  RH  056%=      5-min Rain = 0
KAHS 140509Z 06009KT 29/19 A3005 RMK A01 T02890194  RH  056%=      5-min Rain = 0
KAHS 140510Z 06010KT 29/19 A3005 RMK A01 T02890194  RH  056%=      5-min Rain = 0
KAHS 140521Z 06010KT 29/20 A3005 RMK A01 T02880195  RH  057%=      5-min Rain = 0
KAHS 140522Z 06011KT 29/20 A3005 RMK A01 T02880195  RH  057%=      5-min Rain = 0
KAHS 140523Z 06009KT 29/20 A3006 RMK A01 T02880195  RH  057%=      5-min Rain = 0
KAHS 140524Z 06011KT 29/20 A3006 RMK A01 T02880195  RH  057%=      5-min Rain = 0
KAHS 140525Z 06008KT 29/20 A3006 RMK A01 T02880195  RH  057%=      5-min Rain = 0
KAHS 140526Z 07009KT 29/20 A3006 RMK A01 T02870195  RH  057%=      5-min Rain = 0
KAHS 140527Z 07009KT 29/20 A3006 RMK A01 T02870195  RH  058%=      5-min Rain = 0
KAHS 140528Z 06008KT 29/20 A3006 RMK A01 T02870195  RH  058%=      5-min Rain = 0
KAHS 140529Z 06008KT 29/20 A3006 RMK A01 T02870195  RH  058%=      5-min Rain = 0
KAHS 140530Z 07007KT 29/20 A3006 RMK A01 T02860195  RH  058%=      5-min Rain = 0
KAHS 140531Z 06008KT 29/20 A3005 RMK A01 T02860195  RH  058%=      5-min Rain = 0
KAHS 140532Z 06009KT 29/20 A3006 RMK A01 T02860195  RH  058%=      5-min Rain = 0
KAHS 140533Z 06010KT 29/20 A3005 RMK A01 T02860196  RH  058%=      5-min Rain = 0
KAHS 140534Z 06010KT 29/20 A3005 RMK A01 T02860196  RH  058%=      5-min Rain = 0
KAHS 140535Z 06011KT 29/20 A3005 RMK A01 T02860196  RH  058%=      5-min Rain = 0
KAHS 140536Z 07009KT 29/20 A3005 RMK A01 T02860196  RH  058%=      5-min Rain = 0
KAHS 140537Z 07009KT 29/20 A3006 RMK A01 T02860196  RH  058%=      5-min Rain = 0
KAHS 140538Z 07010KT 29/20 A3006 RMK A01 T02850196  RH  058%=      5-min Rain = 0
KAHS 140539Z 07011KT 29/20 A3005 RMK A01 T02850196  RH  058%=      5-min Rain = 0
KAHS 140540Z 06009KT 29/20 A3005 RMK A01 T02850196  RH  058%=      5-min Rain = 0
KAHS 140541Z 06010KT 29/20 A3005 RMK A01 T02850196  RH  058%=      5-min Rain = 0
KAHS 140542Z 06007KT 29/20 A3005 RMK A01 T02850196  RH  058%=      5-min Rain = 0
KAHS 140543Z 06008KT 29/20 A3005 RMK A01 T02850196  RH  059%=      5-min Rain = 0
KAHS 140544Z 07009KT 29/20 A3005 RMK A01 T02850196  RH  059%=      5-min Rain = 0
KAHS 140545Z 07008KT 29/20 A3005 RMK A01 T02850196  RH  059%=      5-min Rain = 0
KAHS 140546Z 07008KT 29/20 A3005 RMK A01 T02850197  RH  059%=      5-min Rain = 0
KAHS 140547Z 06007KT 28/20 A3005 RMK A01 T02840196  RH  059%=      5-min Rain = 0
KAHS 140548Z 07008KT 28/20 A3005 RMK A01 T02840197  RH  059%=      5-min Rain = 0
KAHS 140549Z 06008KT 28/20 A3005 RMK A01 T02840197  RH  059%=      5-min Rain = 0
KAHS 140550Z 07009KT 28/20 A3006 RMK A01 T02840197  RH  059%=      5-min Rain = 0
KAHS 140551Z 06008KT 28/20 A3006 RMK A01 T02840197  RH  059%=      5-min Rain = 0
KAHS 140552Z 06009KT 28/20 A3006 RMK A01 T02830197  RH  059%=      5-min Rain = 0
KAHS 140553Z 07010KT 28/20 A3006 RMK A01 T02840197  RH  059%=      5-min Rain = 0
KAHS 140554Z 06009KT 28/20 A3006 RMK A01 T02840197  RH  059%=      5-min Rain = 0
KAHS 140555Z 06007KT 28/20 A3006 RMK A01 T02840197  RH  059%=      5-min Rain = 0
KAHS 140556Z 07007KT 28/20 A3006 RMK A01 T02830197  RH  059%=      5-min Rain = 0
KAHS 140557Z 07008KT 28/20 A3006 RMK A01 T02830197  RH  060%=      5-min Rain = 0
KAHS 140558Z 06010KT 28/20 A3006 RMK A01 T02830197  RH  060%=      5-min Rain = 0
KAHS 140559Z 07009KT 28/20 A3006 RMK A01 T02830197  RH  060%=      5-min Rain = 0
KAHS 140600Z 07007KT 28/20 A3006 RMK A01 T02830197  RH  060%=      5-min Rain = 0
KAHS 140601Z 07007KT 28/20 A3006 RMK A01 T02830197  RH  060%=      5-min Rain = 0
KAHS 140602Z 07009KT 28/20 A3006 RMK A01 T02830197  RH  060%=      5-min Rain = 0
KAHS 140603Z 07009KT 28/20 A3006 RMK A01 T02830197  RH  060%=      5-min Rain = 0
KAHS 140604Z 07009KT 28/20 A3006 RMK A01 T02830197  RH  060%=      5-min Rain = 0
KAHS 140605Z 07006KT 28/20 A3006 RMK A01 T02830197  RH  060%=      5-min Rain = 0
KAHS 140606Z 07008KT 28/20 A3006 RMK A01 T02820197  RH  060%=      5-min Rain = 0
KAHS 140607Z 07007KT 28/20 A3006 RMK A01 T02820197  RH  060%=      5-min Rain = 0
KAHS 140608Z 07008KT 28/20 A3006 RMK A01 T02820197  RH  060%=      5-min Rain = 0
KAHS 140609Z 07008KT 28/20 A3006 RMK A01 T02820197  RH  060%=      5-min Rain = 0
KAHS 140610Z 08008KT 28/20 A3006 RMK A01 T02820197  RH  060%=      5-min Rain = 0
KAHS 140611Z 07008KT 28/20 A3006 RMK A01 T02820198  RH  060%=      5-min Rain = 0
KAHS 140612Z 06006KT 28/20 A3006 RMK A01 T02820197  RH  060%=      5-min Rain = 0
KAHS 140613Z 07005KT 28/20 A3006 RMK A01 T02810197  RH  060%=      5-min Rain = 0
KAHS 140614Z 07007KT 28/20 A3006 RMK A01 T02810197  RH  060%=      5-min Rain = 0
KAHS 140615Z 07006KT 28/20 A3006 RMK A01 T02810197  RH  060%=      5-min Rain = 0
KAHS 140616Z 07007KT 28/20 A3006 RMK A01 T02810197  RH  061%=      5-min Rain = 0
KAHS 140617Z 08009KT 28/20 A3006 RMK A01 T02810197  RH  061%=      5-min Rain = 0
KAHS 140618Z 08007KT 28/20 A3006 RMK A01 T02810197  RH  060%=      5-min Rain = 0
KAHS 140619Z 07007KT 28/20 A3006 RMK A01 T02810197  RH  061%=      5-min Rain = 0
KAHS 140620Z 07009KT 28/20 A3006 RMK A01 T02810197  RH  061%=      5-min Rain = 0
KAHS 140621Z 07008KT 28/20 A3006 RMK A01 T02810197  RH  061%=      5-min Rain = 0
KAHS 140622Z 07007KT 28/20 A3006 RMK A01 T02810197  RH  061%=      5-min Rain = 0
KAHS 140623Z 07007KT 28/20 A3006 RMK A01 T02810197  RH  061%=      5-min Rain = 0
KAHS 140624Z 06007KT 28/20 A3006 RMK A01 T02800197  RH  061%=      5-min Rain = 0
KAHS 140625Z 07009KT 28/20 A3006 RMK A01 T02800197  RH  061%=      5-min Rain = 0
KAHS 140626Z 06007KT 28/20 A3006 RMK A01 T02800197  RH  061%=      5-min Rain = 0
KAHS 140627Z 06007KT 28/20 A3006 RMK A01 T02810197  RH  061%=      5-min Rain = 0
KAHS 140628Z 06007KT 28/20 A3006 RMK A01 T02800197  RH  061%=      5-min Rain = 0
KAHS 140629Z 06009KT 28/20 A3006 RMK A01 T02800197  RH  061%=      5-min Rain = 0
KAHS 140630Z 06010KT 28/20 A3006 RMK A01 T02800197  RH  061%=      5-min Rain = 0
KAHS 140631Z 06008KT 28/20 A3006 RMK A01 T02800197  RH  061%=      5-min Rain = 0
KAHS 140632Z 06008KT 28/20 A3006 RMK A01 T02810198  RH  061%=      5-min Rain = 0
KAHS 140633Z 06007KT 28/20 A3006 RMK A01 T02810198  RH  061%=      5-min Rain = 0
KAHS 140634Z 06006KT 28/20 A3006 RMK A01 T02800197  RH  061%=      5-min Rain = 0
KAHS 140635Z 06009KT 28/20 A3006 RMK A01 T02800198  RH  061%=      5-min Rain = 0
KAHS 140636Z 06007KT 28/20 A3006 RMK A01 T02800197  RH  061%=      5-min Rain = 0
KAHS 140637Z 06008KT 28/20 A3006 RMK A01 T02800198  RH  061%=      5-min Rain = 0
KAHS 140638Z 07009KT 28/20 A3006 RMK A01 T02800198  RH  061%=      5-min Rain = 0
KAHS 140639Z 06011KT 28/20 A3006 RMK A01 T02800197  RH  061%=      5-min Rain = 0
KAHS 140640Z 06010KT 28/20 A3006 RMK A01 T02800197  RH  061%=      5-min Rain = 0
KAHS 140641Z 06010KT 28/20 A3006 RMK A01 T02800197  RH  061%=      5-min Rain = 0
KAHS 140642Z 06009KT 28/20 A3006 RMK A01 T02800197  RH  061%=      5-min Rain = 0
KAHS 140643Z 06009KT 28/20 A3006 RMK A01 T02800198  RH  061%=      5-min Rain = 0
KAHS 140644Z 06010KT 28/20 A3006 RMK A01 T02800198  RH  061%=      5-min Rain = 0
KAHS 140645Z 06010KT 28/20 A3006 RMK A01 T02800197  RH  061%=      5-min Rain = 0
KAHS 140646Z 06009KT 28/20 A3006 RMK A01 T02800197  RH  061%=      5-min Rain = 0
KAHS 140647Z 06009KT 28/20 A3006 RMK A01 T02790197  RH  061%=      5-min Rain = 0
KAHS 140648Z 06009KT 28/20 A3006 RMK A01 T02790197  RH  061%=      5-min Rain = 0
KAHS 140649Z 06010KT 28/20 A3006 RMK A01 T02790197  RH  061%=      5-min Rain = 0
KAHS 140650Z 06008KT 28/20 A3006 RMK A01 T02790198  RH  061%=      5-min Rain = 0
KAHS 140651Z 06008KT 28/20 A3006 RMK A01 T02790197  RH  061%=      5-min Rain = 0
KAHS 140652Z 07010KT 28/20 A3006 RMK A01 T02790198  RH  061%=      5-min Rain = 0
KAHS 140653Z 07009KT 28/20 A3006 RMK A01 T02790198  RH  061%=      5-min Rain = 0
KAHS 140654Z 06007KT 28/20 A3006 RMK A01 T02790198  RH  061%=      5-min Rain = 0
KAHS 140655Z 06006KT 28/20 A3006 RMK A01 T02780197  RH  061%=      5-min Rain = 0
KAHS 140656Z 06008KT 28/20 A3006 RMK A01 T02780197  RH  062%=      5-min Rain = 0
KAHS 140657Z 06008KT 28/20 A3006 RMK A01 T02770197  RH  062%=      5-min Rain = 0
KAHS 140658Z 06008KT 28/20 A3006 RMK A01 T02770197  RH  062%=      5-min Rain = 0
KAHS 140659Z 06008KT 28/20 A3006 RMK A01 T02770197  RH  062%=      5-min Rain = 0
KAHS 140700Z 05008KT 28/20 A3006 RMK A01 T02770197  RH  062%=      5-min Rain = 0
KAHS 140701Z 05008KT 28/20 A3006 RMK A01 T02770197  RH  062%=      5-min Rain = 0
KAHS 140702Z 06006KT 28/20 A3006 RMK A01 T02770197  RH  062%=      5-min Rain = 0
KAHS 140703Z 06007KT 28/20 A3006 RMK A01 T02760197  RH  062%=      5-min Rain = 0
KAHS 140704Z 06008KT 28/20 A3006 RMK A01 T02760197  RH  062%=      5-min Rain = 0
KAHS 140705Z 06008KT 28/20 A3006 RMK A01 T02760197  RH  062%=      5-min Rain = 0
KAHS 140706Z 06008KT 28/20 A3006 RMK A01 T02760197  RH  062%=      5-min Rain = 0
KAHS 140707Z 06009KT 28/20 A3006 RMK A01 T02760197  RH  062%=      5-min Rain = 0
KAHS 140708Z 06011KT 28/20 A3006 RMK A01 T02760197  RH  062%=      5-min Rain = 0
KAHS 140709Z 06010KT 28/20 A3006 RMK A01 T02770197  RH  062%=      5-min Rain = 0
KAHS 140710Z 06010KT 28/20 A3006 RMK A01 T02760197  RH  062%=      5-min Rain = 0
KAHS 140711Z 06009KT 28/20 A3006 RMK A01 T02760197  RH  062%=      5-min Rain = 0
KAHS 140712Z 06009KT 28/20 A3006 RMK A01 T02760197  RH  062%=      5-min Rain = 0
KAHS 140713Z 06009KT 28/20 A3006 RMK A01 T02760198  RH  062%=      5-min Rain = 0
KAHS 140714Z 06009KT 28/20 A3006 RMK A01 T02760197  RH  062%=      5-min Rain = 0
KAHS 140715Z 06009KT 28/20 A3006 RMK A01 T02750197  RH  062%=      5-min Rain = 0
KAHS 140716Z 06008KT 28/20 A3007 RMK A01 T02750197  RH  062%=      5-min Rain = 0
KAHS 140717Z 05008KT 28/20 A3007 RMK A01 T02750197  RH  062%=      5-min Rain = 0
KAHS 140718Z 05008KT 28/20 A3007 RMK A01 T02750197  RH  062%=      5-min Rain = 0
KAHS 140719Z 05007KT 28/20 A3007 RMK A01 T02750197  RH  062%=      5-min Rain = 0
KAHS 140720Z 05008KT 28/20 A3007 RMK A01 T02750197  RH  063%=      5-min Rain = 0
KAHS 140721Z 05009KT 28/20 A3007 RMK A01 T02750197  RH  063%=      5-min Rain = 0
KAHS 140722Z 06010KT 28/20 A3007 RMK A01 T02750197  RH  063%=      5-min Rain = 0
KAHS 140723Z 05008KT 28/20 A3007 RMK A01 T02750197  RH  063%=      5-min Rain = 0
KAHS 140724Z 05009KT 28/20 A3007 RMK A01 T02750197  RH  063%=      5-min Rain = 0
KAHS 140725Z 06008KT 28/20 A3007 RMK A01 T02750197  RH  063%=      5-min Rain = 0
KAHS 140726Z 06008G13KT 28/20 A3007 RMK A01 T02750197  RH  063%=      5-min Rain = 0
KAHS 140727Z 06008KT 28/20 A3007 RMK A01 T02750197  RH  063%=      5-min Rain = 0
KAHS 140728Z 06009KT 28/20 A3007 RMK A01 T02750197  RH  063%=      5-min Rain = 0
KAHS 140729Z 06008KT 28/20 A3007 RMK A01 T02750197  RH  063%=      5-min Rain = 0
KAHS 140730Z 05007KT 28/20 A3007 RMK A01 T02750197  RH  063%=      5-min Rain = 0
KAHS 140731Z 06009KT 28/20 A3007 RMK A01 T02750197  RH  063%=      5-min Rain = 0
KAHS 140732Z 06007KT 28/20 A3007 RMK A01 T02750197  RH  063%=      5-min Rain = 0
KAHS 140733Z 06009KT 27/20 A3007 RMK A01 T02740197  RH  063%=      5-min Rain = 0
KAHS 140734Z 06008KT 27/20 A3007 RMK A01 T02740197  RH  063%=      5-min Rain = 0
KAHS 140735Z 06009KT 27/20 A3007 RMK A01 T02740197  RH  063%=      5-min Rain = 0
KAHS 140736Z 06009KT 27/20 A3007 RMK A01 T02740196  RH  063%=      5-min Rain = 0
KAHS 140737Z 06009KT 27/20 A3007 RMK A01 T02740196  RH  062%=      5-min Rain = 0
KAHS 140738Z 05009KT 27/20 A3007 RMK A01 T02740197  RH  062%=      5-min Rain = 0
KAHS 140739Z 05009KT 27/20 A3007 RMK A01 T02740196  RH  063%=      5-min Rain = 0
KAHS 140740Z 05008KT 27/20 A3007 RMK A01 T02740197  RH  063%=      5-min Rain = 0
KAHS 140741Z 06009KT 27/20 A3007 RMK A01 T02740197  RH  063%=      5-min Rain = 0
KAHS 140742Z 04006KT 27/20 A3007 RMK A01 T02730196  RH  063%=      5-min Rain = 0
KAHS 140743Z 05009KT 27/20 A3007 RMK A01 T02730196  RH  063%=      5-min Rain = 0
KAHS 140744Z 05008KT 27/20 A3007 RMK A01 T02730196  RH  063%=      5-min Rain = 0
KAHS 140745Z 05006KT 27/20 A3007 RMK A01 T02730197  RH  063%=      5-min Rain = 0
KAHS 140746Z 05007KT 27/20 A3007 RMK A01 T02730196  RH  063%=      5-min Rain = 0
KAHS 140747Z 05008KT 27/20 A3007 RMK A01 T02730196  RH  063%=      5-min Rain = 0
KAHS 140748Z 05009KT 27/20 A3007 RMK A01 T02730196  RH  063%=      5-min Rain = 0
KAHS 140749Z 05010KT 27/20 A3007 RMK A01 T02730196  RH  063%=      5-min Rain = 0
KAHS 140750Z 05008KT 27/20 A3007 RMK A01 T02730196  RH  063%=      5-min Rain = 0
KAHS 140751Z 05010KT 27/20 A3007 RMK A01 T02730196  RH  063%=      5-min Rain = 0
KAHS 140752Z 05008KT 27/20 A3007 RMK A01 T02730196  RH  063%=      5-min Rain = 0
KAHS 140753Z 05007KT 27/20 A3007 RMK A01 T02730196  RH  063%=      5-min Rain = 0
KAHS 140754Z 05008KT 27/20 A3007 RMK A01 T02730196  RH  063%=      5-min Rain = 0
KAHS 140755Z 05007KT 27/20 A3007 RMK A01 T02720196  RH  063%=      5-min Rain = 0
KAHS 140756Z 05009KT 27/20 A3006 RMK A01 T02720196  RH  063%=      5-min Rain = 0
KAHS 140757Z 05010KT 27/20 A3006 RMK A01 T02720196  RH  063%=      5-min Rain = 0
KAHS 140758Z 05008KT 27/20 A3006 RMK A01 T02720195  RH  063%=      5-min Rain = 0
KAHS 140759Z 06009KT 27/20 A3006 RMK A01 T02720196  RH  063%=      5-min Rain = 0
KAHS 140800Z 05009KT 27/20 A3006 RMK A01 T02720196  RH  063%=      5-min Rain = 0
KAHS 140801Z 06010KT 27/20 A3006 RMK A01 T02720195  RH  063%=      5-min Rain = 0
KAHS 140802Z 06008KT 27/20 A3006 RMK A01 T02720195  RH  063%=      5-min Rain = 0
KAHS 140803Z 05008KT 27/20 A3006 RMK A01 T02720195  RH  063%=      5-min Rain = 0
KAHS 140804Z 06009KT 27/20 A3006 RMK A01 T02720195  RH  063%=      5-min Rain = 0
KAHS 140805Z 06009KT 27/20 A3006 RMK A01 T02720195  RH  063%=      5-min Rain = 0
KAHS 140806Z 06008KT 27/20 A3006 RMK A01 T02710195  RH  063%=      5-min Rain = 0
KAHS 140807Z 06008KT 27/20 A3006 RMK A01 T02710195  RH  063%=      5-min Rain = 0
KAHS 140808Z 05010KT 27/20 A3006 RMK A01 T02710195  RH  063%=      5-min Rain = 0
KAHS 140809Z 06009KT 27/20 A3006 RMK A01 T02710195  RH  063%=      5-min Rain = 0
KAHS 140810Z 06008KT 27/20 A3006 RMK A01 T02710195  RH  063%=      5-min Rain = 0
KAHS 140811Z 05007KT 27/20 A3006 RMK A01 T02700195  RH  063%=      5-min Rain = 0
KAHS 140812Z 05007KT 27/20 A3006 RMK A01 T02700195  RH  063%=      5-min Rain = 0
KAHS 140813Z 05008KT 27/20 A3006 RMK A01 T02690195  RH  064%=      5-min Rain = 0
KAHS 140814Z 05008KT 27/20 A3006 RMK A01 T02700195  RH  064%=      5-min Rain = 0
KAHS 140815Z 05007KT 27/20 A3006 RMK A01 T02700195  RH  064%=      5-min Rain = 0
KAHS 140816Z 05007KT 27/20 A3006 RMK A01 T02690195  RH  064%=      5-min Rain = 0
KAHS 140817Z 05008KT 27/19 A3006 RMK A01 T02690194  RH  064%=      5-min Rain = 0
KAHS 140818Z 05008G13KT 27/19 A3006 RMK A01 T02690194  RH  064%=      5-min Rain = 0
KAHS 140819Z 05007KT 27/19 A3006 RMK A01 T02690194  RH  064%=      5-min Rain = 0
KAHS 140820Z 06008KT 27/20 A3006 RMK A01 T02690195  RH  064%=      5-min Rain = 0
KAHS 140821Z 05008KT 27/19 A3006 RMK A01 T02680194  RH  064%=      5-min Rain = 0
KAHS 140822Z 04008KT 27/19 A3006 RMK A01 T02680194  RH  064%=      5-min Rain = 0
KAHS 140823Z 05009KT 27/19 A3006 RMK A01 T02680194  RH  064%=      5-min Rain = 0
KAHS 140824Z 04009KT 27/20 A3006 RMK A01 T02680195  RH  064%=      5-min Rain = 0
KAHS 140825Z 05010KT 27/20 A3006 RMK A01 T02680195  RH  064%=      5-min Rain = 0
KAHS 140826Z 05009KT 27/19 A3006 RMK A01 T02680194  RH  064%=      5-min Rain = 0
KAHS 140827Z 04009KT 27/19 A3006 RMK A01 T02680194  RH  064%=      5-min Rain = 0
KAHS 140828Z 05008KT 27/20 A3006 RMK A01 T02680195  RH  064%=      5-min Rain = 0
KAHS 140829Z 04007KT 27/19 A3007 RMK A01 T02680194  RH  064%=      5-min Rain = 0
KAHS 140830Z 04012KT 27/19 A3007 RMK A01 T02680194  RH  064%=      5-min Rain = 0
KAHS 140831Z 04010KT 27/19 A3007 RMK A01 T02680194  RH  064%=      5-min Rain = 0
KAHS 140832Z 04011KT 27/19 A3007 RMK A01 T02680194  RH  064%=      5-min Rain = 0
KAHS 140833Z 04011KT 27/19 A3007 RMK A01 T02680194  RH  064%=      5-min Rain = 0
KAHS 140834Z 04011KT 27/20 A3007 RMK A01 T02680195  RH  064%=      5-min Rain = 0
KAHS 140835Z 04010KT 27/20 A3006 RMK A01 T02680195  RH  064%=      5-min Rain = 0
KAHS 140836Z 04010KT 27/20 A3006 RMK A01 T02680195  RH  064%=      5-min Rain = 0
KAHS 140837Z 05011KT 27/19 A3006 RMK A01 T02680194  RH  064%=      5-min Rain = 0
KAHS 140838Z 04009KT 27/20 A3006 RMK A01 T02680195  RH  064%=      5-min Rain = 0
KAHS 140839Z 05011KT 27/20 A3006 RMK A01 T02680195  RH  064%=      5-min Rain = 0
KAHS 140840Z 05007KT 27/20 A3006 RMK A01 T02680195  RH  064%=      5-min Rain = 0
KAHS 140841Z 04010KT 27/20 A3006 RMK A01 T02670195  RH  064%=      5-min Rain = 0
KAHS 140842Z 05010KT 27/19 A3006 RMK A01 T02670194  RH  064%=      5-min Rain = 0
KAHS 140843Z 04009KT 27/20 A3006 RMK A01 T02670195  RH  065%=      5-min Rain = 0
KAHS 140844Z 04008KT 27/20 A3006 RMK A01 T02670195  RH  065%=      5-min Rain = 0
KAHS 140845Z 04008KT 27/20 A3006 RMK A01 T02660195  RH  065%=      5-min Rain = 0
KAHS 140846Z 05009KT 27/20 A3006 RMK A01 T02660195  RH  065%=      5-min Rain = 0
KAHS 140847Z 04009KT 27/20 A3006 RMK A01 T02660195  RH  065%=      5-min Rain = 0
KAHS 140848Z 04010KT 27/20 A3006 RMK A01 T02660195  RH  065%=      5-min Rain = 0
KAHS 140849Z 04009KT 27/20 A3006 RMK A01 T02660195  RH  065%=      5-min Rain = 0
KAHS 140850Z 04009KT 27/20 A3006 RMK A01 T02660195  RH  065%=      5-min Rain = 0
KAHS 140851Z 04010KT 27/20 A3006 RMK A01 T02650195  RH  065%=      5-min Rain = 0
KAHS 140852Z 04009KT 27/20 A3006 RMK A01 T02650195  RH  065%=      5-min Rain = 0
KAHS 140853Z 04008KT 27/20 A3006 RMK A01 T02650195  RH  065%=      5-min Rain = 0
KAHS 140854Z 04009KT 26/20 A3006 RMK A01 T02640195  RH  066%=      5-min Rain = 0
KAHS 140855Z 04008KT 26/20 A3006 RMK A01 T02640195  RH  066%=      5-min Rain = 0
KAHS 140856Z 04009KT 26/20 A3006 RMK A01 T02640195  RH  066%=      5-min Rain = 0
KAHS 140857Z 05010KT 26/20 A3006 RMK A01 T02640195  RH  066%=      5-min Rain = 0
KAHS 140858Z 05009KT 26/20 A3006 RMK A01 T02640195  RH  066%=      5-min Rain = 0
KAHS 140859Z 05009KT 26/20 A3006 RMK A01 T02640195  RH  066%=      5-min Rain = 0
KAHS 140900Z 05008KT 26/20 A3006 RMK A01 T02630195  RH  066%=      5-min Rain = 0
KAHS 140901Z 05007KT 26/20 A3005 RMK A01 T02630195  RH  066%=      5-min Rain = 0
KAHS 140902Z 05008KT 26/19 A3005 RMK A01 T02620194  RH  066%=      5-min Rain = 0
KAHS 140903Z 06006KT 26/20 A3005 RMK A01 T02620195  RH  066%=      5-min Rain = 0
KAHS 140904Z 06009KT 26/19 A3005 RMK A01 T02620194  RH  066%=      5-min Rain = 0
KAHS 140905Z 07007KT 26/19 A3005 RMK A01 T02620194  RH  066%=      5-min Rain = 0
KAHS 140906Z 06007KT 26/20 A3005 RMK A01 T02620195  RH  067%=      5-min Rain = 0
KAHS 140907Z 06006KT 26/20 A3005 RMK A01 T02620195  RH  067%=      5-min Rain = 0
KAHS 140908Z 06005KT 26/19 A3005 RMK A01 T02610194  RH  067%=      5-min Rain = 0
KAHS 140909Z 07006KT 26/19 A3005 RMK A01 T02610194  RH  067%=      5-min Rain = 0
KAHS 140910Z 06008KT 26/19 A3005 RMK A01 T02600194  RH  067%=      5-min Rain = 0
KAHS 140911Z 06008KT 26/19 A3005 RMK A01 T02610194  RH  067%=      5-min Rain = 0
KAHS 140912Z 05007KT 26/19 A3005 RMK A01 T02610194  RH  067%=      5-min Rain = 0
KAHS 140913Z 06008KT 26/19 A3005 RMK A01 T02600194  RH  067%=      5-min Rain = 0
KAHS 140914Z 06011KT 26/19 A3005 RMK A01 T02600194  RH  067%=      5-min Rain = 0
KAHS 140915Z 06009KT 26/20 A3005 RMK A01 T02610195  RH  067%=      5-min Rain = 0
KAHS 140916Z 06008KT 26/20 A3005 RMK A01 T02610195  RH  067%=      5-min Rain = 0
KAHS 140917Z 06009KT 26/20 A3005 RMK A01 T02610195  RH  067%=      5-min Rain = 0
KAHS 140918Z 06009KT 26/19 A3005 RMK A01 T02600194  RH  067%=      5-min Rain = 0
KAHS 140919Z 07007KT 26/19 A3005 RMK A01 T02600194  RH  067%=      5-min Rain = 0
KAHS 140920Z 06009KT 26/20 A3005 RMK A01 T02600195  RH  067%=      5-min Rain = 0
KAHS 140921Z 06008KT 26/20 A3005 RMK A01 T02600195  RH  067%=      5-min Rain = 0
KAHS 140922Z 07007KT 26/20 A3005 RMK A01 T02600195  RH  067%=      5-min Rain = 0
KAHS 140923Z 07008KT 26/19 A3005 RMK A01 T02600194  RH  067%=      5-min Rain = 0
KAHS 140924Z 07007KT 26/20 A3005 RMK A01 T02600195  RH  067%=      5-min Rain = 0
KAHS 140925Z 06006KT 26/19 A3005 RMK A01 T02590194  RH  067%=      5-min Rain = 0
KAHS 140926Z 07008KT 26/20 A3005 RMK A01 T02590195  RH  067%=      5-min Rain = 0
KAHS 140927Z 07008KT 26/19 A3005 RMK A01 T02590194  RH  068%=      5-min Rain = 0
KAHS 140928Z 07007KT 26/19 A3005 RMK A01 T02590194  RH  068%=      5-min Rain = 0
KAHS 140929Z 07008KT 26/20 A3005 RMK A01 T02590195  RH  068%=      5-min Rain = 0
KAHS 140930Z 06008KT 26/20 A3005 RMK A01 T02590195  RH  068%=      5-min Rain = 0
KAHS 140931Z 07007KT 26/20 A3005 RMK A01 T02590195  RH  068%=      5-min Rain = 0
KAHS 140932Z 07007KT 26/19 A3005 RMK A01 T02590194  RH  068%=      5-min Rain = 0
KAHS 140933Z 06007KT 26/19 A3005 RMK A01 T02580194  RH  068%=      5-min Rain = 0
KAHS 140934Z 06007KT 26/20 A3006 RMK A01 T02580195  RH  068%=      5-min Rain = 0
KAHS 140935Z 06006KT 26/19 A3006 RMK A01 T02580194  RH  068%=      5-min Rain = 0
KAHS 140936Z 07007KT 26/19 A3006 RMK A01 T02580194  RH  068%=      5-min Rain = 0
KAHS 140937Z 06008KT 26/19 A3006 RMK A01 T02570194  RH  068%=      5-min Rain = 0
KAHS 140938Z 06008KT 26/19 A3006 RMK A01 T02570194  RH  068%=      5-min Rain = 0
KAHS 140939Z 05007KT 26/19 A3006 RMK A01 T02570194  RH  068%=      5-min Rain = 0
KAHS 140940Z 05007KT 26/19 A3006 RMK A01 T02570194  RH  068%=      5-min Rain = 0
KAHS 140941Z 05009KT 26/19 A3006 RMK A01 T02560194  RH  068%=      5-min Rain = 0
KAHS 140942Z 05008KT 26/19 A3006 RMK A01 T02560194  RH  068%=      5-min Rain = 0
KAHS 140943Z 05007KT 26/19 A3006 RMK A01 T02560194  RH  068%=      5-min Rain = 0
KAHS 140944Z 06007KT 26/19 A3006 RMK A01 T02560194  RH  068%=      5-min Rain = 0
KAHS 140945Z 05008KT 26/19 A3006 RMK A01 T02560194  RH  069%=      5-min Rain = 0
KAHS 140946Z 06009KT 26/19 A3006 RMK A01 T02560194  RH  069%=      5-min Rain = 0
KAHS 140947Z 05007KT 26/19 A3006 RMK A01 T02560194  RH  068%=      5-min Rain = 0
KAHS 140948Z 06008KT 26/19 A3006 RMK A01 T02560194  RH  069%=      5-min Rain = 0
KAHS 140949Z 06009KT 26/19 A3006 RMK A01 T02560194  RH  069%=      5-min Rain = 0
KAHS 140950Z 06009KT 26/19 A3006 RMK A01 T02560194  RH  069%=      5-min Rain = 0
KAHS 140951Z 06009KT 26/19 A3006 RMK A01 T02560194  RH  069%=      5-min Rain = 0
KAHS 140952Z 06008KT 26/19 A3006 RMK A01 T02560194  RH  069%=      5-min Rain = 0
KAHS 140953Z 06008KT 26/19 A3006 RMK A01 T02560194  RH  069%=      5-min Rain = 0
KAHS 140954Z 06008KT 26/19 A3006 RMK A01 T02560194  RH  069%=      5-min Rain = 0
KAHS 140955Z 06007KT 26/19 A3006 RMK A01 T02560194  RH  069%=      5-min Rain = 0
KAHS 140956Z 06007KT 26/19 A3006 RMK A01 T02550194  RH  069%=      5-min Rain = 0
KAHS 140957Z 06007KT 26/19 A3006 RMK A01 T02550194  RH  069%=      5-min Rain = 0
KAHS 140958Z 06006KT 26/19 A3006 RMK A01 T02550194  RH  069%=      5-min Rain = 0
KAHS 140959Z 06006KT 26/19 A3006 RMK A01 T02550194  RH  069%=      5-min Rain = 0
KAHS 141000Z 06008KT 26/19 A3006 RMK A01 T02550194  RH  069%=      5-min Rain = 0
KAHS 141001Z 06005KT 26/19 A3006 RMK A01 T02550194  RH  069%=      5-min Rain = 0
KAHS 141002Z 05005KT 25/19 A3006 RMK A01 T02540194  RH  069%=      5-min Rain = 0
KAHS 141003Z 05006KT 25/19 A3007 RMK A01 T02540194  RH  069%=      5-min Rain = 0
KAHS 141004Z 06005KT 25/19 A3007 RMK A01 T02540194  RH  069%=      5-min Rain = 0
KAHS 141005Z 06006KT 25/19 A3007 RMK A01 T02540194  RH  069%=      5-min Rain = 0
KAHS 141006Z 05006KT 25/19 A3007 RMK A01 T02540194  RH  070%=      5-min Rain = 0
KAHS 141007Z 05006KT 25/19 A3007 RMK A01 T02540194  RH  070%=      5-min Rain = 0
KAHS 141008Z 05005KT 25/19 A3007 RMK A01 T02530194  RH  070%=      5-min Rain = 0
KAHS 141009Z 06006KT 25/19 A3007 RMK A01 T02530194  RH  070%=      5-min Rain = 0
KAHS 141010Z 05006KT 25/19 A3007 RMK A01 T02530194  RH  070%=      5-min Rain = 0
KAHS 141011Z 06008KT 25/19 A3007 RMK A01 T02530194  RH  069%=      5-min Rain = 0
KAHS 141012Z 05006KT 25/19 A3007 RMK A01 T02540194  RH  069%=      5-min Rain = 0
KAHS 141013Z 05007KT 25/19 A3007 RMK A01 T02540194  RH  069%=      5-min Rain = 0
KAHS 141014Z 06005KT 25/19 A3007 RMK A01 T02540194  RH  069%=      5-min Rain = 0
KAHS 141015Z 06005KT 25/19 A3007 RMK A01 T02540194  RH  069%=      5-min Rain = 0
KAHS 141016Z 06008G13KT 25/19 A3007 RMK A01 T02540194  RH  069%=      5-min Rain = 0
KAHS 141017Z 06009KT 25/19 A3007 RMK A01 T02540194  RH  069%=      5-min Rain = 0
KAHS 141018Z 06009KT 25/19 A3007 RMK A01 T02540193  RH  069%=      5-min Rain = 0
KAHS 141019Z 06008KT 26/19 A3007 RMK A01 T02550194  RH  069%=      5-min Rain = 0
KAHS 141020Z 06010G15KT 26/19 A3007 RMK A01 T02550194  RH  069%=      5-min Rain = 0
KAHS 141021Z 06008KT 25/19 A3007 RMK A01 T02540193  RH  069%=      5-min Rain = 0
KAHS 141022Z 06009KT 26/19 A3007 RMK A01 T02550194  RH  069%=      5-min Rain = 0
KAHS 141023Z 07010KT 25/19 A3007 RMK A01 T02540193  RH  069%=      5-min Rain = 0
KAHS 141024Z 06008KT 26/19 A3007 RMK A01 T02550194  RH  069%=      5-min Rain = 0
KAHS 141025Z 06009KT 25/19 A3007 RMK A01 T02540194  RH  069%=      5-min Rain = 0
KAHS 141026Z 06010KT 25/19 A3007 RMK A01 T02540193  RH  069%=      5-min Rain = 0
KAHS 141027Z 06009KT 25/19 A3008 RMK A01 T02540193  RH  069%=      5-min Rain = 0
KAHS 141028Z 06007KT 25/19 A3008 RMK A01 T02540193  RH  069%=      5-min Rain = 0
KAHS 141029Z 06007KT 25/19 A3008 RMK A01 T02540193  RH  069%=      5-min Rain = 0
KAHS 141030Z 06009KT 25/19 A3008 RMK A01 T02540193  RH  069%=      5-min Rain = 0
KAHS 141031Z 06009KT 25/19 A3008 RMK A01 T02530193  RH  069%=      5-min Rain = 0
KAHS 141032Z 06010KT 25/19 A3008 RMK A01 T02530193  RH  069%=      5-min Rain = 0
KAHS 141033Z 06008KT 25/19 A3008 RMK A01 T02530193  RH  069%=      5-min Rain = 0
KAHS 141034Z 06009KT 25/19 A3008 RMK A01 T02530193  RH  069%=      5-min Rain = 0
KAHS 141035Z 06009KT 25/19 A3007 RMK A01 T02530193  RH  069%=      5-min Rain = 0
KAHS 141036Z 05009KT 25/19 A3008 RMK A01 T02530193  RH  069%=      5-min Rain = 0
KAHS 141037Z 05008KT 25/19 A3008 RMK A01 T02530193  RH  070%=      5-min Rain = 0
KAHS 141038Z 05009KT 25/19 A3008 RMK A01 T02520193  RH  070%=      5-min Rain = 0
KAHS 141039Z 05008KT 25/19 A3008 RMK A01 T02520193  RH  070%=      5-min Rain = 0
KAHS 141040Z 05008KT 25/19 A3008 RMK A01 T02520193  RH  070%=      5-min Rain = 0
KAHS 141041Z 05006KT 25/19 A3008 RMK A01 T02510192  RH  070%=      5-min Rain = 0
KAHS 141042Z 05007KT 25/19 A3008 RMK A01 T02510193  RH  070%=      5-min Rain = 0
KAHS 141043Z 06008KT 25/19 A3008 RMK A01 T02510192  RH  070%=      5-min Rain = 0
KAHS 141044Z 05008KT 25/19 A3008 RMK A01 T02510192  RH  070%=      5-min Rain = 0
KAHS 141045Z 05007KT 25/19 A3008 RMK A01 T02510192  RH  070%=      5-min Rain = 0
KAHS 141046Z 05009KT 25/19 A3008 RMK A01 T02510192  RH  070%=      5-min Rain = 0
KAHS 141047Z 05010KT 25/19 A3008 RMK A01 T02510192  RH  070%=      5-min Rain = 0
KAHS 141048Z 05011KT 25/19 A3008 RMK A01 T02510192  RH  070%=      5-min Rain = 0
KAHS 141049Z 05009KT 25/19 A3009 RMK A01 T02510192  RH  070%=      5-min Rain = 0
KAHS 141050Z 05010KT 25/19 A3009 RMK A01 T02500192  RH  070%=      5-min Rain = 0
KAHS 141051Z 05010KT 25/19 A3009 RMK A01 T02500191  RH  070%=      5-min Rain = 0
KAHS 141052Z 05008KT 25/19 A3008 RMK A01 T02500191  RH  070%=      5-min Rain = 0
KAHS 141053Z 05008KT 25/19 A3008 RMK A01 T02500191  RH  070%=      5-min Rain = 0
KAHS 141054Z 05009KT 25/19 A3009 RMK A01 T02500191  RH  070%=      5-min Rain = 0
KAHS 141055Z 06006KT 25/19 A3009 RMK A01 T02490191  RH  070%=      5-min Rain = 0
KAHS 141056Z 05008G13KT 25/19 A3009 RMK A01 T02490191  RH  070%=      5-min Rain = 0
KAHS 141057Z 05009KT 25/19 A3009 RMK A01 T02490191  RH  070%=      5-min Rain = 0
KAHS 141058Z 04009KT 25/19 A3009 RMK A01 T02490191  RH  070%=      5-min Rain = 0
KAHS 141059Z 05010KT 25/19 A3009 RMK A01 T02490191  RH  070%=      5-min Rain = 0
KAHS 141100Z 05010KT 25/19 A3009 RMK A01 T02490190  RH  070%=      5-min Rain = 0
KAHS 141101Z 04013KT 25/19 A3009 RMK A01 T02490190  RH  070%=      5-min Rain = 0
KAHS 141102Z 05011KT 25/19 A301 RMK A01 T02490190  RH  070%=      5-min Rain = 0
KAHS 141103Z 04009KT 25/19 A3009 RMK A01 T02490190  RH  070%=      5-min Rain = 0
KAHS 141104Z 05008KT 25/19 A3009 RMK A01 T02490190  RH  070%=      5-min Rain = 0
KAHS 141105Z 05009KT 25/19 A3009 RMK A01 T02480190  RH  070%=      5-min Rain = 0
KAHS 141106Z 05007KT 25/19 A3009 RMK A01 T02480190  RH  070%=      5-min Rain = 0
KAHS 141107Z 05011KT 25/19 A301 RMK A01 T02480190  RH  070%=      5-min Rain = 0
KAHS 141108Z 05009KT 25/19 A301 RMK A01 T02480189  RH  070%=      5-min Rain = 0
KAHS 141109Z 05009KT 25/19 A301 RMK A01 T02480189  RH  070%=      5-min Rain = 0
KAHS 141110Z 04008KT 25/19 A301 RMK A01 T02470189  RH  070%=      5-min Rain = 0
KAHS 141111Z 05010G15KT 25/19 A301 RMK A01 T02470189  RH  070%=      5-min Rain = 0
KAHS 141112Z 04010KT 25/19 A301 RMK A01 T02470189  RH  070%=      5-min Rain = 0
KAHS 141113Z 04008KT 25/19 A301 RMK A01 T02470189  RH  070%=      5-min Rain = 0
KAHS 141114Z 04010KT 25/19 A301 RMK A01 T02470189  RH  070%=      5-min Rain = 0
KAHS 141115Z 05011KT 25/19 A301 RMK A01 T02470188  RH  070%=      5-min Rain = 0
KAHS 141116Z 04012KT 25/19 A301 RMK A01 T02470188  RH  070%=      5-min Rain = 0
KAHS 141117Z 04013KT 25/19 A301 RMK A01 T02470188  RH  070%=      5-min Rain = 0
KAHS 141118Z 05010KT 25/19 A301 RMK A01 T02470188  RH  070%=      5-min Rain = 0
KAHS 141119Z 05010KT 25/19 A301 RMK A01 T02460187  RH  070%=      5-min Rain = 0
KAHS 141120Z 05009KT 25/19 A301 RMK A01 T02460187  RH  070%=      5-min Rain = 0
KAHS 141121Z 04010KT 25/19 A301 RMK A01 T02460187  RH  070%=      5-min Rain = 0
KAHS 141122Z 04010KT 25/19 A301 RMK A01 T02450187  RH  070%=      5-min Rain = 0
KAHS 141123Z 04009KT 25/19 A301 RMK A01 T02450187  RH  070%=      5-min Rain = 0
KAHS 141124Z 04010KT 25/19 A301 RMK A01 T02450187  RH  070%=      5-min Rain = 0
KAHS 141125Z 05012KT 25/19 A301 RMK A01 T02450187  RH  070%=      5-min Rain = 0
KAHS 141126Z 04010KT 25/19 A3011 RMK A01 T02450186  RH  070%=      5-min Rain = 0
KAHS 141127Z 05010KT 25/19 A3011 RMK A01 T02450187  RH  070%=      5-min Rain = 0
KAHS 141128Z 05008KT 25/19 A3011 RMK A01 T02450187  RH  070%=      5-min Rain = 0
KAHS 141129Z 04008KT 24/19 A3011 RMK A01 T02440186  RH  070%=      5-min Rain = 0
KAHS 141130Z 04014G19KT 24/19 A3011 RMK A01 T02440187  RH  070%=      5-min Rain = 0
KAHS 141131Z 04013KT 24/19 A3011 RMK A01 T02440186  RH  070%=      5-min Rain = 0
KAHS 141132Z 04012KT 25/19 A3011 RMK A01 T02450186  RH  070%=      5-min Rain = 0
KAHS 141133Z 04009KT 25/19 A3011 RMK A01 T02450186  RH  070%=      5-min Rain = 0
KAHS 141134Z 04009G14KT 24/19 A3011 RMK A01 T02440186  RH  070%=      5-min Rain = 0
KAHS 141135Z 04012G18KT 24/19 A3011 RMK A01 T02440186  RH  070%=      5-min Rain = 0
KAHS 141136Z 03014G19KT 24/19 A3011 RMK A01 T02440186  RH  070%=      5-min Rain = 0
KAHS 141137Z 04014G19KT 24/19 A3011 RMK A01 T02430186  RH  070%=      5-min Rain = 0
KAHS 141138Z 03016KT 24/19 A3011 RMK A01 T02430186  RH  071%=      5-min Rain = 0
KAHS 141139Z 04015KT 24/19 A3011 RMK A01 T02420186  RH  071%=      5-min Rain = 0
KAHS 141140Z 04014KT 24/19 A3011 RMK A01 T02420186  RH  071%=      5-min Rain = 0
KAHS 141141Z 04016KT 24/19 A3011 RMK A01 T02420186  RH  071%=      5-min Rain = 0
KAHS 141142Z 04012KT 24/19 A3011 RMK A01 T02410186  RH  071%=      5-min Rain = 0
KAHS 141143Z 05010KT 24/19 A3011 RMK A01 T02410186  RH  071%=      5-min Rain = 0
KAHS 141144Z 05010KT 24/19 A3011 RMK A01 T02410186  RH  072%=      5-min Rain = 0
KAHS 141145Z 04010KT 24/19 A3011 RMK A01 T02400186  RH  072%=      5-min Rain = 0
KAHS 141146Z 05008KT 24/19 A3011 RMK A01 T02400186  RH  072%=      5-min Rain = 0
KAHS 141147Z 04009KT 24/19 A3011 RMK A01 T02400186  RH  072%=      5-min Rain = 0
KAHS 141148Z 04010G18KT 24/19 A3011 RMK A01 T02390186  RH  072%=      5-min Rain = 0
KAHS 141149Z 04012G18KT 24/19 A3012 RMK A01 T02390186  RH  072%=      5-min Rain = 0
KAHS 141150Z 05013KT 24/19 A3012 RMK A01 T02390186  RH  072%=      5-min Rain = 0
KAHS 141151Z 05017KT 24/19 A3012 RMK A01 T02390186  RH  072%=      5-min Rain = 0
KAHS 141152Z 04014KT 24/19 A3012 RMK A01 T02390186  RH  072%=      5-min Rain = 0
KAHS 141153Z 05012KT 24/19 A3012 RMK A01 T02380186  RH  073%=      5-min Rain = 0
KAHS 141154Z 05011KT 24/19 A3012 RMK A01 T02380186  RH  073%=      5-min Rain = 0
KAHS 141155Z 05013KT 24/19 A3012 RMK A01 T02380186  RH  073%=      5-min Rain = 0
KAHS 141156Z 05012KT 24/19 A3012 RMK A01 T02380186  RH  073%=      5-min Rain = 0
KAHS 141157Z 05010KT 24/19 A3012 RMK A01 T02370186  RH  073%=      5-min Rain = 0
KAHS 141158Z 04011KT 24/19 A3012 RMK A01 T02370186  RH  073%=      5-min Rain = 0
KAHS 141159Z 04008KT 24/19 A3012 RMK A01 T02360186  RH  073%=      5-min Rain = 0
KAHS 141200Z 03008KT 24/19 A3012 RMK A01 T02360186  RH  073%=      5-min Rain = 0
KAHS 141201Z 04010KT 24/19 A3012 RMK A01 T02360186  RH  074%=      5-min Rain = 0
KAHS 141202Z 04009KT 24/19 A3012 RMK A01 T02350185  RH  074%=      5-min Rain = 0
KAHS 141203Z 03008KT 24/19 A3011 RMK A01 T02350185  RH  074%=      5-min Rain = 0
KAHS 141204Z 04010KT 23/19 A3011 RMK A01 T02340185  RH  074%=      5-min Rain = 0
KAHS 141205Z 04013KT 23/19 A3011 RMK A01 T02340185  RH  074%=      5-min Rain = 0
KAHS 141206Z 04011KT 23/19 A3011 RMK A01 T02340185  RH  074%=      5-min Rain = 0
KAHS 141207Z 04012KT 23/19 A3012 RMK A01 T02330185  RH  074%=      5-min Rain = 0
KAHS 141208Z 04010KT 23/19 A3012 RMK A01 T02330185  RH  074%=      5-min Rain = 0
KAHS 141209Z 04011KT 23/19 A3012 RMK A01 T02330185  RH  074%=      5-min Rain = 0
KAHS 141210Z 04011KT 23/19 A3012 RMK A01 T02320185  RH  075%=      5-min Rain = 0
KAHS 141211Z 04012KT 23/19 A3012 RMK A01 T02320185  RH  075%=      5-min Rain = 0
KAHS 141212Z 04009KT 23/19 A3012 RMK A01 T02320185  RH  075%=      5-min Rain = 0
KAHS 141213Z 04010KT 23/19 A3012 RMK A01 T02320185  RH  075%=      5-min Rain = 0
KAHS 141214Z 04010KT 23/19 A3012 RMK A01 T02320185  RH  075%=      5-min Rain = 0
KAHS 141215Z 04012G17KT 23/19 A3012 RMK A01 T02320185  RH  075%=      5-min Rain = 0
KAHS 141216Z 04011KT 23/19 A3012 RMK A01 T02320185  RH  075%=      5-min Rain = 0
KAHS 141217Z 03012KT 23/19 A3012 RMK A01 T02320185  RH  075%=      5-min Rain = 0
KAHS 141218Z 04011KT 23/19 A3012 RMK A01 T02320185  RH  075%=      5-min Rain = 0
KAHS 141219Z 04012KT 23/19 A3012 RMK A01 T02320185  RH  075%=      5-min Rain = 0
KAHS 141220Z 04011KT 23/19 A3012 RMK A01 T02320185  RH  075%=      5-min Rain = 0
KAHS 141221Z 04009KT 23/19 A3012 RMK A01 T02320185  RH  075%=      5-min Rain = 0
KAHS 141222Z 04008KT 23/19 A3012 RMK A01 T02320185  RH  075%=      5-min Rain = 0
KAHS 141223Z 03007KT 23/19 A3012 RMK A01 T02320185  RH  075%=      5-min Rain = 0
KAHS 141224Z 03010KT 23/19 A3012 RMK A01 T02320185  RH  075%=      5-min Rain = 0
KAHS 141225Z 03010KT 23/19 A3012 RMK A01 T02320185  RH  075%=      5-min Rain = 0
KAHS 141226Z 03008KT 23/19 A3013 RMK A01 T02320185  RH  075%=      5-min Rain = 0
KAHS 141227Z 04007KT 23/19 A3013 RMK A01 T02320185  RH  075%=      5-min Rain = 0
KAHS 141228Z 03006KT 23/19 A3013 RMK A01 T02310185  RH  075%=      5-min Rain = 0
KAHS 141229Z 03010KT 23/19 A3013 RMK A01 T02310185  RH  075%=      5-min Rain = 0
KAHS 141230Z 03009KT 23/19 A3013 RMK A01 T02310185  RH  075%=      5-min Rain = 0
KAHS 141231Z 02008KT 23/19 A3013 RMK A01 T02310185  RH  075%=      5-min Rain = 0
KAHS 141232Z 03009KT 23/18 A3013 RMK A01 T02300184  RH  075%=      5-min Rain = 0
KAHS 141233Z 03008KT 23/18 A3013 RMK A01 T02300184  RH  075%=      5-min Rain = 0
KAHS 141234Z 03010KT 23/18 A3013 RMK A01 T02300184  RH  075%=      5-min Rain = 0
KAHS 141235Z 02011KT 23/18 A3013 RMK A01 T02300184  RH  075%=      5-min Rain = 0
KAHS 141236Z 03010KT 23/18 A3013 RMK A01 T02300184  RH  075%=      5-min Rain = 0
KAHS 141237Z 04010KT 23/18 A3013 RMK A01 T02300183  RH  075%=      5-min Rain = 0
KAHS 141238Z 03009KT 23/18 A3013 RMK A01 T02300183  RH  075%=      5-min Rain = 0
KAHS 141239Z 03012KT 23/18 A3013 RMK A01 T02300183  RH  075%=      5-min Rain = 0
KAHS 141240Z 03009KT 23/18 A3013 RMK A01 T02300182  RH  075%=      5-min Rain = 0
KAHS 141241Z 04013KT 23/18 A3013 RMK A01 T02300182  RH  075%=      5-min Rain = 0
KAHS 141242Z 04013KT 23/18 A3013 RMK A01 T02300182  RH  074%=      5-min Rain = 0
KAHS 141243Z 04012KT 23/18 A3014 RMK A01 T02300182  RH  074%=      5-min Rain = 0
KAHS 141244Z 03010KT 23/18 A3014 RMK A01 T02300182  RH  074%=      5-min Rain = 0
KAHS 141245Z 03009KT 23/18 A3014 RMK A01 T02300183  RH  074%=      5-min Rain = 0
KAHS 141246Z 02008G14KT 23/18 A3014 RMK A01 T02300182  RH  074%=      5-min Rain = 0
KAHS 141247Z 03013KT 23/18 A3014 RMK A01 T02300182  RH  074%=      5-min Rain = 0
KAHS 141248Z 03014KT 23/18 A3014 RMK A01 T02300181  RH  074%=      5-min Rain = 0
KAHS 141249Z 03012KT 23/18 A3014 RMK A01 T02300181  RH  074%=      5-min Rain = 0
KAHS 141250Z 03011KT 23/18 A3014 RMK A01 T02300181  RH  074%=      5-min Rain = 0
KAHS 141251Z 03009KT 23/18 A3014 RMK A01 T02300181  RH  074%=      5-min Rain = 0
KAHS 141252Z 02010KT 23/18 A3014 RMK A01 T02300181  RH  074%=      5-min Rain = 0
KAHS 141253Z 02012KT 23/18 A3014 RMK A01 T02300180  RH  074%=      5-min Rain = 0
KAHS 141254Z 03010G16KT 23/18 A3014 RMK A01 T02300180  RH  074%=      5-min Rain = 0
KAHS 141255Z 02010KT 23/18 A3014 RMK A01 T02290179  RH  073%=      5-min Rain = 0
KAHS 141256Z 02010KT 23/18 A3015 RMK A01 T02290178  RH  073%=      5-min Rain = 0
KAHS 141257Z 02010G15KT 23/18 A3015 RMK A01 T02280178  RH  073%=      5-min Rain = 0
KAHS 141258Z 04010KT 23/18 A3015 RMK A01 T02280178  RH  073%=      5-min Rain = 0
KAHS 141259Z 03009KT 23/18 A3015 RMK A01 T02280178  RH  073%=      5-min Rain = 0
KAHS 141300Z 03010KT 23/18 A3015 RMK A01 T02290178  RH  073%=      5-min Rain = 0
KAHS 141301Z 03010KT 23/18 A3015 RMK A01 T02300178  RH  073%=      5-min Rain = 0
KAHS 141302Z 02011G16KT 23/18 A3015 RMK A01 T02310178  RH  072%=      5-min Rain = 0
KAHS 141303Z 03012KT 23/18 A3015 RMK A01 T02310178  RH  072%=      5-min Rain = 0
KAHS 141304Z 03010KT 23/18 A3015 RMK A01 T02310178  RH  072%=      5-min Rain = 0
KAHS 141305Z 03011KT 23/18 A3015 RMK A01 T02310178  RH  072%=      5-min Rain = 0
KAHS 141306Z 03011KT 23/18 A3015 RMK A01 T02310177  RH  072%=      5-min Rain = 0
KAHS 141307Z 03009KT 23/18 A3015 RMK A01 T02310178  RH  072%=      5-min Rain = 0
KAHS 141308Z 03013KT 23/18 A3015 RMK A01 T02310177  RH  071%=      5-min Rain = 0
KAHS 141309Z 04010KT 23/18 A3015 RMK A01 T02310176  RH  071%=      5-min Rain = 0
KAHS 141310Z 04012KT 23/18 A3015 RMK A01 T02310176  RH  071%=      5-min Rain = 0
KAHS 141311Z 03008KT 23/18 A3015 RMK A01 T02310176  RH  072%=      5-min Rain = 0
KAHS 141312Z 03009KT 23/18 A3015 RMK A01 T02320177  RH  071%=      5-min Rain = 0
KAHS 141313Z 04010KT 23/18 A3015 RMK A01 T02320176  RH  071%=      5-min Rain = 0
KAHS 141314Z 04011KT 23/18 A3015 RMK A01 T02320176  RH  071%=      5-min Rain = 0
KAHS 141315Z 04011KT 23/18 A3015 RMK A01 T02320176  RH  071%=      5-min Rain = 0
KAHS 141316Z 04010KT 23/18 A3015 RMK A01 T02310176  RH  071%=      5-min Rain = 0
KAHS 141317Z 04011KT 23/18 A3015 RMK A01 T02320177  RH  071%=      5-min Rain = 0
KAHS 141318Z 03013KT 23/18 A3015 RMK A01 T02320176  RH  071%=      5-min Rain = 0
KAHS 141319Z 04011KT 23/18 A3015 RMK A01 T02330177  RH  071%=      5-min Rain = 0
KAHS 141320Z 04010KT 23/18 A3015 RMK A01 T02340177  RH  070%=      5-min Rain = 0
KAHS 141321Z 03012KT 23/18 A3015 RMK A01 T02340177  RH  070%=      5-min Rain = 0
KAHS 141322Z 04009KT 24/18 A3015 RMK A01 T02350177  RH  070%=      5-min Rain = 0
KAHS 141323Z 04011KT 24/18 A3015 RMK A01 T02360177  RH  070%=      5-min Rain = 0
KAHS 141324Z 04011KT 24/18 A3015 RMK A01 T02360177  RH  069%=      5-min Rain = 0
KAHS 141325Z 04011KT 24/18 A3015 RMK A01 T02360177  RH  069%=      5-min Rain = 0
KAHS 141326Z 04009KT 24/18 A3015 RMK A01 T02370177  RH  069%=      5-min Rain = 0
KAHS 141327Z 04008KT 24/18 A3015 RMK A01 T02370177  RH  069%=      5-min Rain = 0
KAHS 141328Z 03008G15KT 24/18 A3015 RMK A01 T02390178  RH  069%=      5-min Rain = 0
KAHS 141329Z 03014KT 24/18 A3015 RMK A01 T02390178  RH  069%=      5-min Rain = 0
KAHS 141330Z 04013KT 24/18 A3015 RMK A01 T02380178  RH  069%=      5-min Rain = 0
KAHS 141331Z 04010KT 24/18 A3015 RMK A01 T02380178  RH  069%=      5-min Rain = 0
KAHS 141332Z 05010KT 24/18 A3015 RMK A01 T02380178  RH  069%=      5-min Rain = 0
KAHS 141333Z 03011KT 24/18 A3015 RMK A01 T02390178  RH  069%=      5-min Rain = 0
KAHS 141334Z 03012KT 24/18 A3015 RMK A01 T02400179  RH  069%=      5-min Rain = 0
KAHS 141335Z 03014KT 24/18 A3015 RMK A01 T02400178  RH  069%=      5-min Rain = 0
KAHS 141336Z 03014KT 24/18 A3015 RMK A01 T02390178  RH  069%=      5-min Rain = 0
KAHS 141337Z 04012KT 24/18 A3015 RMK A01 T02380178  RH  069%=      5-min Rain = 0
KAHS 141338Z 03013KT 24/18 A3015 RMK A01 T02370178  RH  069%=      5-min Rain = 0
KAHS 141339Z 04012KT 24/18 A3015 RMK A01 T02370178  RH  070%=      5-min Rain = 0
KAHS 141340Z 03011KT 24/18 A3015 RMK A01 T02360178  RH  070%=      5-min Rain = 0
KAHS 141341Z 03011KT 24/18 A3016 RMK A01 T02360177  RH  070%=      5-min Rain = 0
KAHS 141342Z 03009KT 24/18 A3016 RMK A01 T02370178  RH  070%=      5-min Rain = 0
KAHS 141343Z 04012KT 24/18 A3016 RMK A01 T02380178  RH  069%=      5-min Rain = 0
KAHS 141344Z 04010KT 24/18 A3016 RMK A01 T02390179  RH  069%=      5-min Rain = 0
KAHS 141345Z 03011KT 24/18 A3016 RMK A01 T02390178  RH  069%=      5-min Rain = 0
KAHS 141346Z 04010KT 24/18 A3016 RMK A01 T02390178  RH  069%=      5-min Rain = 0
KAHS 141347Z 03012G17KT 24/18 A3016 RMK A01 T02390178  RH  069%=      5-min Rain = 0
KAHS 141348Z 03015KT 24/18 A3016 RMK A01 T02400179  RH  069%=      5-min Rain = 0
KAHS 141349Z 03014KT 24/18 A3016 RMK A01 T02400179  RH  069%=      5-min Rain = 0
KAHS 141350Z 03012KT 24/18 A3016 RMK A01 T02390179  RH  069%=      5-min Rain = 0
KAHS 141351Z 03012KT 24/18 A3016 RMK A01 T02390179  RH  069%=      5-min Rain = 0
KAHS 141352Z 04011KT 24/18 A3016 RMK A01 T02380179  RH  069%=      5-min Rain = 0
KAHS 141353Z 04011KT 24/18 A3016 RMK A01 T02390179  RH  069%=      5-min Rain = 0
KAHS 141354Z 04009KT 24/18 A3016 RMK A01 T02400179  RH  069%=      5-min Rain = 0
KAHS 141355Z 03011KT 24/18 A3016 RMK A01 T02410179  RH  068%=      5-min Rain = 0
KAHS 141356Z 04012KT 24/18 A3016 RMK A01 T02410179  RH  068%=      5-min Rain = 0
KAHS 141357Z 04010KT 24/18 A3016 RMK A01 T02420179  RH  068%=      5-min Rain = 0
KAHS 141358Z 04014KT 24/18 A3016 RMK A01 T02420179  RH  068%=      5-min Rain = 0
KAHS 141359Z 03010KT 24/18 A3016 RMK A01 T02430179  RH  068%=      5-min Rain = 0
KAHS 141400Z 02011KT 24/18 A3016 RMK A01 T02430179  RH  068%=      5-min Rain = 0
KAHS 141401Z 04009KT 25/18 A3016 RMK A01 T02450180  RH  067%=      5-min Rain = 0
KAHS 141402Z 04010KT 25/18 A3016 RMK A01 T02460180  RH  067%=      5-min Rain = 0
KAHS 141403Z 05009KT 25/18 A3016 RMK A01 T02460180  RH  067%=      5-min Rain = 0
KAHS 141404Z 03012KT 25/18 A3016 RMK A01 T02450179  RH  067%=      5-min Rain = 0
KAHS 141405Z 03012KT 25/18 A3016 RMK A01 T02450179  RH  067%=      5-min Rain = 0
KAHS 141406Z 02011KT 25/18 A3017 RMK A01 T02450179  RH  067%=      5-min Rain = 0
KAHS 141407Z 02011KT 25/18 A3017 RMK A01 T02460179  RH  066%=      5-min Rain = 0
KAHS 141408Z 02011KT 25/18 A3017 RMK A01 T02470179  RH  066%=      5-min Rain = 0
KAHS 141409Z 03015KT 25/18 A3017 RMK A01 T02490180  RH  066%=      5-min Rain = 0
KAHS 141410Z 02015KT 25/18 A3017 RMK A01 T02480180  RH  066%=      5-min Rain = 0
KAHS 141411Z 03013KT 25/18 A3017 RMK A01 T02460180  RH  067%=      5-min Rain = 0
KAHS 141412Z 02009KT 25/18 A3017 RMK A01 T02460180  RH  067%=      5-min Rain = 0
KAHS 141413Z 02011KT 25/18 A3017 RMK A01 T02480180  RH  066%=      5-min Rain = 0
KAHS 141414Z 02012KT 25/18 A3017 RMK A01 T02480179  RH  065%=      5-min Rain = 0
KAHS 141415Z 02013KT 25/18 A3017 RMK A01 T02480180  RH  066%=      5-min Rain = 0
KAHS 141416Z 03013KT 25/18 A3017 RMK A01 T02490180  RH  065%=      5-min Rain = 0
KAHS 141417Z 03011KT 25/18 A3017 RMK A01 T02480179  RH  066%=      5-min Rain = 0
KAHS 141418Z 03011KT 25/18 A3018 RMK A01 T02490180  RH  065%=      5-min Rain = 0
KAHS 141419Z 02011KT 25/18 A3018 RMK A01 T02490179  RH  065%=      5-min Rain = 0
KAHS 141420Z 03011KT 25/18 A3018 RMK A01 T02500179  RH  065%=      5-min Rain = 0
KAHS 141421Z 02007KT 25/18 A3018 RMK A01 T02520179  RH  064%=      5-min Rain = 0
KAHS 141422Z 03009KT 25/18 A3018 RMK A01 T02540179  RH  063%=      5-min Rain = 0
KAHS 141423Z 03011KT 25/18 A3018 RMK A01 T02540179  RH  063%=      5-min Rain = 0
KAHS 141424Z 02011KT 25/18 A3018 RMK A01 T02530179  RH  063%=      5-min Rain = 0
KAHS 141425Z 02013KT 25/18 A3018 RMK A01 T02520179  RH  064%=      5-min Rain = 0
KAHS 141426Z 02013KT 25/18 A3018 RMK A01 T02510179  RH  065%=      5-min Rain = 0
KAHS 141427Z 04010KT 25/18 A3018 RMK A01 T02520180  RH  065%=      5-min Rain = 0
KAHS 141428Z 03009G14KT 25/18 A3018 RMK A01 T02540181  RH  064%=      5-min Rain = 0
KAHS 141429Z 03016KT 25/18 A3018 RMK A01 T02540181  RH  064%=      5-min Rain = 0
KAHS 141430Z 04012KT 25/18 A3018 RMK A01 T02530180  RH  064%=      5-min Rain = 0
KAHS 141431Z 04009KT 25/18 A3018 RMK A01 T02540181  RH  064%=      5-min Rain = 0
KAHS 141432Z 05009G14KT 26/18 A3018 RMK A01 T02560181  RH  063%=      5-min Rain = 0
KAHS 141433Z 02015KT 26/18 A3018 RMK A01 T02570180  RH  063%=      5-min Rain = 0
KAHS 141434Z 03014G19KT 26/18 A3018 RMK A01 T02550180  RH  063%=      5-min Rain = 0
KAHS 141435Z 03013KT 26/18 A3018 RMK A01 T02550180  RH  063%=      5-min Rain = 0
KAHS 141436Z 03013KT 26/18 A3018 RMK A01 T02560181  RH  063%=      5-min Rain = 0
KAHS 141437Z 03013KT 26/18 A3018 RMK A01 T02560181  RH  063%=      5-min Rain = 0
KAHS 141438Z 04011KT 26/18 A3018 RMK A01 T02560181  RH  063%=      5-min Rain = 0
KAHS 141439Z 06009KT 26/18 A3018 RMK A01 T02570181  RH  063%=      5-min Rain = 0
KAHS 141440Z 04011KT 26/18 A3018 RMK A01 T02560180  RH  063%=      5-min Rain = 0
KAHS 141441Z 05011KT 26/18 A3018 RMK A01 T02570180  RH  062%=      5-min Rain = 0
KAHS 141442Z 05012KT 26/18 A3018 RMK A01 T02580180  RH  062%=      5-min Rain = 0
KAHS 141443Z 03012G18KT 26/18 A3018 RMK A01 T02580181  RH  062%=      5-min Rain = 0
KAHS 141444Z 03012KT 26/18 A3018 RMK A01 T02580180  RH  062%=      5-min Rain = 0
KAHS 141445Z 02011KT 26/18 A3018 RMK A01 T02580180  RH  062%=      5-min Rain = 0
KAHS 141446Z 02011KT 26/18 A3018 RMK A01 T02580180  RH  062%=      5-min Rain = 0
KAHS 141447Z 03008KT 26/18 A3018 RMK A01 T02590181  RH  062%=      5-min Rain = 0
KAHS 141448Z 03012KT 26/18 A3018 RMK A01 T02610180  RH  061%=      5-min Rain = 0
KAHS 141449Z 04011KT 26/18 A3018 RMK A01 T02600181  RH  062%=      5-min Rain = 0
KAHS 141450Z 03012KT 26/18 A3018 RMK A01 T02600181  RH  062%=      5-min Rain = 0
KAHS 141451Z 03012KT 26/18 A3018 RMK A01 T02600181  RH  062%=      5-min Rain = 0
KAHS 141452Z 04008KT 26/18 A3018 RMK A01 T02610182  RH  062%=      5-min Rain = 0
KAHS 141453Z 05009KT 26/18 A3018 RMK A01 T02640182  RH  061%=      5-min Rain = 0
KAHS 141454Z 04009KT 27/18 A3018 RMK A01 T02650183  RH  061%=      5-min Rain = 0
KAHS 141455Z 03009KT 27/18 A3018 RMK A01 T02660182  RH  060%=      5-min Rain = 0
KAHS 141456Z 02010KT 27/18 A3018 RMK A01 T02670181  RH  060%=      5-min Rain = 0
KAHS 141457Z 04009KT 27/18 A3018 RMK A01 T02670182  RH  060%=      5-min Rain = 0
KAHS 141458Z 05009KT 27/18 A3018 RMK A01 T02690183  RH  059%=      5-min Rain = 0
KAHS 141459Z 04007KT 27/18 A3018 RMK A01 T02700183  RH  059%=      5-min Rain = 0
KAHS 141500Z 04010G15KT 27/18 A3018 RMK A01 T02700182  RH  058%=      5-min Rain = 0
KAHS 141501Z 04011KT 27/18 A3018 RMK A01 T02690181  RH  059%=      5-min Rain = 0
KAHS 141502Z 03013KT 27/18 A3018 RMK A01 T02680180  RH  059%=      5-min Rain = 0
KAHS 141503Z 03012KT 27/18 A3018 RMK A01 T02650180  RH  060%=      5-min Rain = 0
KAHS 141504Z 03011KT 26/18 A3017 RMK A01 T02640181  RH  060%=      5-min Rain = 0
KAHS 141505Z 04012KT 27/18 A3018 RMK A01 T02660181  RH  060%=      5-min Rain = 0
KAHS 141506Z 05011KT 27/18 A3018 RMK A01 T02680181  RH  059%=      5-min Rain = 0
KAHS 141507Z 04011KT 27/18 A3018 RMK A01 T02680181  RH  059%=      5-min Rain = 0
KAHS 141508Z 03011KT 27/18 A3018 RMK A01 T02680181  RH  059%=      5-min Rain = 0
KAHS 141509Z 02010KT 27/18 A3018 RMK A01 T02670181  RH  059%=      5-min Rain = 0
KAHS 141510Z 03012KT 27/18 A3018 RMK A01 T02670181  RH  059%=      5-min Rain = 0
KAHS 141511Z 04012KT 27/18 A3018 RMK A01 T02660181  RH  060%=      5-min Rain = 0
KAHS 141512Z 04013KT 27/18 A3018 RMK A01 T02670182  RH  060%=      5-min Rain = 0
KAHS 141513Z 05013KT 27/18 A3018 RMK A01 T02680183  RH  059%=      5-min Rain = 0
KAHS 141514Z 05010KT 27/18 A3018 RMK A01 T02680183  RH  059%=      5-min Rain = 0
KAHS 141515Z 04011KT 27/18 A3018 RMK A01 T02710183  RH  059%=      5-min Rain = 0
KAHS 141516Z 03011KT 27/18 A3018 RMK A01 T02700182  RH  059%=      5-min Rain = 0
KAHS 141517Z 04011KT 27/18 A3018 RMK A01 T02680182  RH  059%=      5-min Rain = 0
KAHS 141518Z 04007KT 27/18 A3018 RMK A01 T02680183  RH  060%=      5-min Rain = 0
KAHS 141519Z 04008G14KT 27/18 A3018 RMK A01 T02720184  RH  059%=      5-min Rain = 0
KAHS 141520Z 05011KT 27/18 A3018 RMK A01 T02730183  RH  058%=      5-min Rain = 0
KAHS 141521Z 04009KT 27/18 A3018 RMK A01 T02700183  RH  059%=      5-min Rain = 0
KAHS 141522Z 03010KT 27/18 A3018 RMK A01 T02710184  RH  059%=      5-min Rain = 0
KAHS 141523Z 04013KT 27/18 A3018 RMK A01 T02740184  RH  058%=      5-min Rain = 0
KAHS 141524Z 05010KT 27/18 A3018 RMK A01 T02730184  RH  058%=      5-min Rain = 0
KAHS 141525Z 03012KT 27/18 A3018 RMK A01 T02740184  RH  058%=      5-min Rain = 0
KAHS 141526Z 02011KT 28/18 A3018 RMK A01 T02750184  RH  058%=      5-min Rain = 0
KAHS 141527Z 04011KT 27/19 A3018 RMK A01 T02740185  RH  058%=      5-min Rain = 0
KAHS 141528Z 03011KT 28/19 A3018 RMK A01 T02780186  RH  057%=      5-min Rain = 0
KAHS 141529Z 03009KT 28/18 A3018 RMK A01 T02800184  RH  056%=      5-min Rain = 0
KAHS 141530Z 02008KT 28/18 A3018 RMK A01 T02770184  RH  057%=      5-min Rain = 0
KAHS 141531Z 04007KT 28/19 A3018 RMK A01 T02760185  RH  057%=      5-min Rain = 0
KAHS 141532Z 03011KT 28/19 A3018 RMK A01 T02770185  RH  057%=      5-min Rain = 0
KAHS 141533Z 03011KT 28/19 A3018 RMK A01 T02790186  RH  057%=      5-min Rain = 0
KAHS 141534Z 04013KT 28/19 A3018 RMK A01 T02780186  RH  057%=      5-min Rain = 0
KAHS 141535Z 04013G18KT 28/19 A3018 RMK A01 T02760186  RH  058%=      5-min Rain = 0
KAHS 141536Z 05011KT 28/19 A3018 RMK A01 T02770186  RH  058%=      5-min Rain = 0
KAHS 141537Z 05009G14KT 28/19 A3018 RMK A01 T02780187  RH  058%=      5-min Rain = 0
KAHS 141538Z 05013KT 28/19 A3018 RMK A01 T02780186  RH  057%=      5-min Rain = 0
KAHS 141539Z 05011KT 28/19 A3018 RMK A01 T02770187  RH  058%=      5-min Rain = 0
KAHS 141540Z 04010KT 28/19 A3018 RMK A01 T02790187  RH  057%=      5-min Rain = 0
KAHS 141541Z 04008KT 28/19 A3018 RMK A01 T02780187  RH  058%=      5-min Rain = 0
KAHS 141542Z 02010KT 28/19 A3018 RMK A01 T02800188  RH  057%=      5-min Rain = 0
KAHS 141543Z 03013KT 28/19 A3018 RMK A01 T02800187  RH  057%=      5-min Rain = 0
KAHS 141544Z 05010KT 28/19 A3018 RMK A01 T02790188  RH  058%=      5-min Rain = 0
KAHS 141545Z 04011KT 28/19 A3018 RMK A01 T02800188  RH  057%=      5-min Rain = 0
KAHS 141546Z 06008KT 28/19 A3018 RMK A01 T02820189  RH  057%=      5-min Rain = 0
KAHS 141547Z 04011KT 29/19 A3018 RMK A01 T02850189  RH  056%=      5-min Rain = 0
KAHS 141548Z 05007KT 28/19 A3018 RMK A01 T02820189  RH  057%=      5-min Rain = 0
KAHS 141549Z 06007KT 28/19 A3018 RMK A01 T02840190  RH  057%=      5-min Rain = 0
KAHS 141550Z 06010G15KT 29/19 A3018 RMK A01 T02850190  RH  056%=      5-min Rain = 0
KAHS 141551Z 06012KT 28/19 A3018 RMK A01 T02840190  RH  057%=      5-min Rain = 0
KAHS 141552Z 06009KT 28/19 A3018 RMK A01 T02840191  RH  057%=      5-min Rain = 0
KAHS 141553Z 06007KT 29/19 A3018 RMK A01 T02850191  RH  057%=      5-min Rain = 0
KAHS 141554Z 06006KT 29/19 A3018 RMK A01 T02850191  RH  057%=      5-min Rain = 0
KAHS 141555Z 07007KT 29/19 A3017 RMK A01 T02860192  RH  057%=      5-min Rain = 0
KAHS 141556Z 07009KT 29/19 A3017 RMK A01 T02880192  RH  056%=      5-min Rain = 0
KAHS 141557Z 06010KT 29/19 A3017 RMK A01 T02900192  RH  056%=      5-min Rain = 0
KAHS 141558Z 05010KT 29/19 A3017 RMK A01 T02870192  RH  056%=      5-min Rain = 0
KAHS 141559Z 06009KT 29/19 A3017 RMK A01 T02870193  RH  057%=      5-min Rain = 0
KAHS 141600Z 05010KT 29/19 A3017 RMK A01 T02890192  RH  056%=      5-min Rain = 0
KAHS 141601Z 07009KT 29/19 A3017 RMK A01 T02870192  RH  057%=      5-min Rain = 0
KAHS 141602Z 08008KT 29/19 A3017 RMK A01 T02880193  RH  056%=      5-min Rain = 0
KAHS 141603Z 06008KT 29/19 A3017 RMK A01 T02900193  RH  056%=      5-min Rain = 0
KAHS 141604Z 05006KT 29/19 A3017 RMK A01 T02900192  RH  056%=      5-min Rain = 0
KAHS 141605Z 06009KT 29/19 A3017 RMK A01 T02890193  RH  056%=      5-min Rain = 0
KAHS 141606Z 09008KT 29/19 A3017 RMK A01 T02870193  RH  057%=      5-min Rain = 0
KAHS 141607Z 08010KT 29/19 A3017 RMK A01 T02870193  RH  057%=      5-min Rain = 0
KAHS 141608Z 08006KT 29/19 A3017 RMK A01 T02870193  RH  057%=      5-min Rain = 0
KAHS 141609Z 08007KT 29/19 A3017 RMK A01 T02870193  RH  057%=      5-min Rain = 0
KAHS 141610Z 09008KT 29/19 A3017 RMK A01 T02890194  RH  056%=      5-min Rain = 0
KAHS 141611Z 07007KT 29/20 A3017 RMK A01 T02930195  RH  056%=      5-min Rain = 0
KAHS 141612Z 07009G14KT 30/20 A3017 RMK A01 T02990195  RH  054%=      5-min Rain = 0
KAHS 141613Z 05011KT 30/20 A3017 RMK A01 T02960195  RH  054%=      5-min Rain = 0
KAHS 141614Z 07012KT 29/20 A3017 RMK A01 T02940195  RH  055%=      5-min Rain = 0
KAHS 141615Z 08009KT 29/20 A3017 RMK A01 T02920195  RH  056%=      5-min Rain = 0
KAHS 141616Z 07011KT 29/20 A3017 RMK A01 T02910195  RH  056%=      5-min Rain = 0
KAHS 141617Z 08010KT 29/20 A3017 RMK A01 T02900195  RH  056%=      5-min Rain = 0
KAHS 141618Z 07012KT 29/20 A3017 RMK A01 T02920195  RH  056%=      5-min Rain = 0
KAHS 141619Z 08010KT 29/20 A3017 RMK A01 T02920195  RH  056%=      5-min Rain = 0
KAHS 141620Z 07010KT 30/19 A3017 RMK A01 T02950194  RH  055%=      5-min Rain = 0
KAHS 141621Z 06010KT 30/20 A3017 RMK A01 T02970195  RH  054%=      5-min Rain = 0
KAHS 141622Z 07011KT 30/20 A3017 RMK A01 T02960195  RH  055%=      5-min Rain = 0
KAHS 141623Z 07010KT 30/20 A3017 RMK A01 T02950196  RH  055%=      5-min Rain = 0
KAHS 141624Z 08009KT 30/20 A3017 RMK A01 T02950195  RH  055%=      5-min Rain = 0
KAHS 141625Z 09011KT 30/20 A3017 RMK A01 T02950196  RH  055%=      5-min Rain = 0
KAHS 141626Z 08010KT 30/20 A3017 RMK A01 T02960195  RH  055%=      5-min Rain = 0
KAHS 141627Z 07009KT 29/20 A3017 RMK A01 T02940195  RH  055%=      5-min Rain = 0
KAHS 141628Z 06014KT 30/20 A3017 RMK A01 T02950195  RH  055%=      5-min Rain = 0
KAHS 141629Z 07009G14KT 30/20 A3017 RMK A01 T02950195  RH  055%=      5-min Rain = 0
KAHS 141630Z 08013KT 30/20 A3017 RMK A01 T02950195  RH  055%=      5-min Rain = 0
KAHS 141631Z 07013KT 30/20 A3017 RMK A01 T02960195  RH  055%=      5-min Rain = 0
KAHS 141632Z 07012KT 30/19 A3017 RMK A01 T02970194  RH  054%=      5-min Rain = 0
KAHS 141633Z 06010KT 29/19 A3017 RMK A01 T02930194  RH  055%=      5-min Rain = 0
KAHS 141634Z 05009KT 30/20 A3017 RMK A01 T02950196  RH  055%=      5-min Rain = 0
KAHS 141635Z 07010G16KT 30/20 A3017 RMK A01 T02960196  RH  055%=      5-min Rain = 0
KAHS 141636Z 07013G18KT 30/19 A3017 RMK A01 T02990194  RH  053%=      5-min Rain = 0
KAHS 141637Z 07013KT 30/20 A3017 RMK A01 T03030195  RH  052%=      5-min Rain = 0
KAHS 141638Z 07013KT 30/19 A3017 RMK A01 T03040194  RH  052%=      5-min Rain = 0
KAHS 141639Z 07012KT 30/20 A3017 RMK A01 T03040195  RH  052%=      5-min Rain = 0
KAHS 141640Z 06012KT 30/20 A3017 RMK A01 T03020195  RH  052%=      5-min Rain = 0
KAHS 141641Z 06010KT 30/19 A3017 RMK A01 T02980194  RH  054%=      5-min Rain = 0
KAHS 141642Z 05010KT 30/19 A3017 RMK A01 T02980194  RH  054%=      5-min Rain = 0
KAHS 141643Z 05010KT 30/19 A3017 RMK A01 T02980194  RH  054%=      5-min Rain = 0
KAHS 141644Z 03010KT 30/19 A3017 RMK A01 T03010194  RH  052%=      5-min Rain = 0
KAHS 141645Z 05012G17KT 30/19 A3016 RMK A01 T03030194  RH  052%=      5-min Rain = 0
KAHS 141646Z 06013KT 31/19 A3016 RMK A01 T03050193  RH  051%=      5-min Rain = 0
KAHS 141647Z 06013KT 31/19 A3016 RMK A01 T03060192  RH  051%=      5-min Rain = 0
KAHS 141648Z 08011KT 31/19 A3016 RMK A01 T03050193  RH  051%=      5-min Rain = 0
KAHS 141649Z 06010KT 31/19 A3016 RMK A01 T03050193  RH  051%=      5-min Rain = 0
KAHS 141650Z 07007KT 31/19 A3016 RMK A01 T03080194  RH  051%=      5-min Rain = 0
KAHS 141651Z 04011KT 31/19 A3016 RMK A01 T03090193  RH  050%=      5-min Rain = 0
KAHS 141652Z 06013KT 31/19 A3016 RMK A01 T03060192  RH  050%=      5-min Rain = 0
KAHS 141653Z 07011KT 31/19 A3016 RMK A01 T03060193  RH  051%=      5-min Rain = 0
KAHS 141654Z 06010KT 31/19 A3016 RMK A01 T03070193  RH  051%=      5-min Rain = 0
KAHS 141655Z 06013KT 31/19 A3016 RMK A01 T03080192  RH  050%=      5-min Rain = 0
KAHS 141656Z 07009KT 31/19 A3016 RMK A01 T03050191  RH  051%=      5-min Rain = 0
KAHS 141657Z 07011KT 31/19 A3016 RMK A01 T03070191  RH  050%=      5-min Rain = 0
KAHS 141658Z 04011KT 31/19 A3016 RMK A01 T03080191  RH  050%=      5-min Rain = 0
KAHS 141659Z 04011KT 31/19 A3016 RMK A01 T03100190  RH  049%=      5-min Rain = 0
KAHS 141700Z 05010KT 31/19 A3016 RMK A01 T03110189  RH  048%=      5-min Rain = 0
KAHS 141701Z 05010KT 31/19 A3016 RMK A01 T03100191  RH  049%=      5-min Rain = 0
KAHS 141702Z 07013KT 31/19 A3016 RMK A01 T03130192  RH  049%=      5-min Rain = 0
KAHS 141703Z 07010KT 31/19 A3016 RMK A01 T03110192  RH  049%=      5-min Rain = 0
KAHS 141704Z 07013G21KT 31/19 A3016 RMK A01 T03120192  RH  049%=      5-min Rain = 0
KAHS 141705Z 07011KT 31/19 A3016 RMK A01 T03130192  RH  049%=      5-min Rain = 0
KAHS 141706Z 07011KT 31/19 A3016 RMK A01 T03110191  RH  049%=      5-min Rain = 0
KAHS 141707Z 07009KT 31/19 A3016 RMK A01 T03090192  RH  050%=      5-min Rain = 0
KAHS 141708Z 05007KT 31/19 A3015 RMK A01 T03080191  RH  050%=      5-min Rain = 0
KAHS 141709Z 02010G16KT 31/19 A3015 RMK A01 T03090191  RH  049%=      5-min Rain = 0
KAHS 141710Z 05011KT 31/19 A3015 RMK A01 T03090190  RH  049%=      5-min Rain = 0
KAHS 141711Z 05011KT 31/19 A3015 RMK A01 T03120190  RH  049%=      5-min Rain = 0
KAHS 141712Z 05013KT 31/19 A3015 RMK A01 T03130188  RH  047%=      5-min Rain = 0
KAHS 141713Z 04009KT 31/19 A3015 RMK A01 T03130187  RH  047%=      5-min Rain = 0
KAHS 141714Z 04014KT 31/19 A3015 RMK A01 T03140186  RH  047%=      5-min Rain = 0
KAHS 141715Z 04012KT 31/19 A3015 RMK A01 T03120186  RH  047%=      5-min Rain = 0
KAHS 141716Z 04012KT 31/19 A3015 RMK A01 T03120188  RH  048%=      5-min Rain = 0
KAHS 141717Z 06015KT 31/19 A3015 RMK A01 T03130187  RH  047%=      5-min Rain = 0
KAHS 141718Z 07013KT 31/19 A3015 RMK A01 T03110186  RH  047%=      5-min Rain = 0
KAHS 141719Z 07009G14KT 31/19 A3015 RMK A01 T03110186  RH  048%=      5-min Rain = 0
KAHS 141720Z 08011G17KT 31/19 A3014 RMK A01 T03110186  RH  047%=      5-min Rain = 0
KAHS 141721Z 07011G16KT 31/18 A3014 RMK A01 T03120184  RH  046%=      5-min Rain = 0
KAHS 141722Z 05011G16KT 31/19 A3014 RMK A01 T03130185  RH  047%=      5-min Rain = 0
KAHS 141723Z 04013KT 32/18 A3014 RMK A01 T03160184  RH  046%=      5-min Rain = 0
KAHS 141724Z 03013KT 32/18 A3014 RMK A01 T03150184  RH  046%=      5-min Rain = 0
KAHS 141725Z 04011KT 32/19 A3014 RMK A01 T03150185  RH  046%=      5-min Rain = 0
KAHS 141726Z 05011KT 32/18 A3014 RMK A01 T03150184  RH  046%=      5-min Rain = 0
KAHS 141727Z 06009KT 32/19 A3014 RMK A01 T03150186  RH  046%=      5-min Rain = 0
KAHS 141728Z 05011KT 32/19 A3014 RMK A01 T03160186  RH  046%=      5-min Rain = 0
KAHS 141729Z 07008KT 32/19 A3014 RMK A01 T03170186  RH  046%=      5-min Rain = 0
KAHS 141730Z 03008KT 32/19 A3014 RMK A01 T03200187  RH  045%=      5-min Rain = 0
KAHS 141731Z 03007KT 32/19 A3014 RMK A01 T03220188  RH  045%=      5-min Rain = 0
KAHS 141732Z 03008KT 32/19 A3014 RMK A01 T03200187  RH  045%=      5-min Rain = 0
KAHS 141733Z 02011KT 32/19 A3014 RMK A01 T03200186  RH  045%=      5-min Rain = 0
KAHS 141734Z 02011KT 32/19 A3014 RMK A01 T03190186  RH  045%=      5-min Rain = 0
KAHS 141735Z 05006KT 32/19 A3014 RMK A01 T03190186  RH  045%=      5-min Rain = 0
KAHS 141736Z 05008KT 32/19 A3014 RMK A01 T03210186  RH  045%=      5-min Rain = 0
KAHS 141737Z 04009KT 32/19 A3014 RMK A01 T03200186  RH  045%=      5-min Rain = 0
KAHS 141738Z 06006KT 32/19 A3014 RMK A01 T03180186  RH  045%=      5-min Rain = 0
KAHS 141739Z 07012G17KT 32/19 A3013 RMK A01 T03220186  RH  045%=      5-min Rain = 0
KAHS 141740Z 06012KT 32/19 A3013 RMK A01 T03230186  RH  044%=      5-min Rain = 0
KAHS 141741Z 08016KT 32/19 A3013 RMK A01 T03240186  RH  044%=      5-min Rain = 0
KAHS 141742Z 07012KT 32/19 A3013 RMK A01 T03210186  RH  045%=      5-min Rain = 0
KAHS 141743Z 06013KT 32/19 A3013 RMK A01 T03200185  RH  045%=      5-min Rain = 0
KAHS 141744Z 05012G17KT 32/19 A3013 RMK A01 T03180185  RH  045%=      5-min Rain = 0
KAHS 141745Z 09009KT 32/19 A3013 RMK A01 T03160185  RH  046%=      5-min Rain = 0
KAHS 141746Z 08005KT 32/19 A3013 RMK A01 T03150186  RH  046%=      5-min Rain = 0
KAHS 141747Z 04007KT 32/19 A3013 RMK A01 T03200187  RH  045%=      5-min Rain = 0
KAHS 141748Z 05008KT 32/19 A3012 RMK A01 T03220187  RH  045%=      5-min Rain = 0
KAHS 141749Z 06008G14KT 32/19 A3012 RMK A01 T03220186  RH  044%=      5-min Rain = 0
KAHS 141750Z 06009KT 32/18 A3012 RMK A01 T03230182  RH  043%=      5-min Rain = 0
KAHS 141751Z 07010KT 33/18 A3012 RMK A01 T03260181  RH  042%=      5-min Rain = 0
KAHS 141752Z 06012KT 33/18 A3012 RMK A01 T03250180  RH  042%=      5-min Rain = 0
KAHS 141753Z 07012KT 33/18 A3012 RMK A01 T03270182  RH  042%=      5-min Rain = 0
KAHS 141754Z 08012KT 33/18 A3012 RMK A01 T03300182  RH  042%=      5-min Rain = 0
KAHS 141755Z 08010KT 33/18 A3012 RMK A01 T03270180  RH  042%=      5-min Rain = 0
KAHS 141756Z 09011KT 32/18 A3012 RMK A01 T03240181  RH  042%=      5-min Rain = 0
KAHS 141757Z 06012KT 33/18 A3012 RMK A01 T03250183  RH  043%=      5-min Rain = 0
KAHS 141758Z 07011KT 33/18 A3012 RMK A01 T03270184  RH  043%=      5-min Rain = 0
KAHS 141759Z 07011KT 33/18 A3012 RMK A01 T03260183  RH  043%=      5-min Rain = 0
KAHS 141800Z 05009KT 32/18 A3012 RMK A01 T03220184  RH  044%=      5-min Rain = 0
KAHS 141801Z 04010KT 33/18 A3012 RMK A01 T03250184  RH  043%=      5-min Rain = 0
KAHS 141802Z 04008KT 33/18 A3012 RMK A01 T03290183  RH  042%=      5-min Rain = 0
KAHS 141803Z 06007KT 33/18 A3012 RMK A01 T03280183  RH  042%=      5-min Rain = 0
KAHS 141804Z 07008G14KT 33/18 A3012 RMK A01 T03280182  RH  042%=      5-min Rain = 0
KAHS 141805Z 07010KT 33/18 A3012 RMK A01 T03310178  RH  040%=      5-min Rain = 0
KAHS 141806Z 07013KT 33/18 A3012 RMK A01 T03330177  RH  040%=      5-min Rain = 0
KAHS 141807Z 07010G15KT 33/18 A3012 RMK A01 T03300176  RH  040%=      5-min Rain = 0
KAHS 141808Z 07010KT 33/18 A3012 RMK A01 T03270177  RH  041%=      5-min Rain = 0
KAHS 141809Z 09010KT 33/18 A3012 RMK A01 T03270179  RH  042%=      5-min Rain = 0
KAHS 141810Z 07011KT 33/18 A3012 RMK A01 T03290181  RH  041%=      5-min Rain = 0
KAHS 141811Z 07008KT 33/18 A3012 RMK A01 T03290182  RH  042%=      5-min Rain = 0
KAHS 141812Z 07009G14KT 33/18 A3011 RMK A01 T03320183  RH  041%=      5-min Rain = 0
KAHS 141813Z 05013KT 33/18 A3011 RMK A01 T03320177  RH  040%=      5-min Rain = 0
KAHS 141814Z 08008KT 33/18 A3011 RMK A01 T03310175  RH  040%=      5-min Rain = 0
KAHS 141815Z 08007KT 33/18 A3011 RMK A01 T03320180  RH  041%=      5-min Rain = 0
KAHS 141816Z 08006KT 33/18 A3011 RMK A01 T03310177  RH  040%=      5-min Rain = 0
KAHS 141817Z 07009KT 34/18 A3011 RMK A01 T03350176  RH  039%=      5-min Rain = 0
KAHS 141818Z 06008KT 34/17 A3011 RMK A01 T03370172  RH  038%=      5-min Rain = 0
KAHS 141819Z 07012KT 34/17 A3011 RMK A01 T03410171  RH  036%=      5-min Rain = 0
KAHS 141820Z 08011KT 34/17 A3011 RMK A01 T03390168  RH  036%=      5-min Rain = 0
KAHS 141821Z 08012KT 34/17 A3011 RMK A01 T03350168  RH  037%=      5-min Rain = 0
KAHS 141822Z 08012KT 33/17 A3011 RMK A01 T03340170  RH  038%=      5-min Rain = 0
KAHS 141823Z 07013KT 33/17 A3011 RMK A01 T03340168  RH  037%=      5-min Rain = 0
KAHS 141824Z 06011KT 33/17 A3011 RMK A01 T03340169  RH  037%=      5-min Rain = 0
KAHS 141825Z 05011KT 33/17 A3011 RMK A01 T03330169  RH  038%=      5-min Rain = 0
KAHS 141826Z 06008KT 34/17 A3011 RMK A01 T03350168  RH  037%=      5-min Rain = 0
KAHS 141827Z 05010KT 34/17 A3011 RMK A01 T03380167  RH  036%=      5-min Rain = 0
KAHS 141828Z 06009KT 34/17 A3011 RMK A01 T03370168  RH  036%=      5-min Rain = 0
KAHS 141829Z 05008KT 34/17 A3011 RMK A01 T03370170  RH  037%=      5-min Rain = 0
KAHS 141830Z 05011KT 34/17 A3011 RMK A01 T03410171  RH  036%=      5-min Rain = 0
KAHS 141831Z 05010G15KT 34/17 A3011 RMK A01 T03400173  RH  037%=      5-min Rain = 0
KAHS 141832Z 06012G18KT 34/17 A3011 RMK A01 T03400173  RH  037%=      5-min Rain = 0
KAHS 141833Z 09010KT 34/18 A3011 RMK A01 T03400177  RH  038%=      5-min Rain = 0
KAHS 141834Z 06010KT 34/18 A3011 RMK A01 T03410176  RH  038%=      5-min Rain = 0
KAHS 141835Z 07006KT 34/18 A3011 RMK A01 T03350177  RH  039%=      5-min Rain = 0
KAHS 141836Z 08008G13KT 33/18 A3011 RMK A01 T03330177  RH  040%=      5-min Rain = 0
KAHS 141837Z 10009KT 33/17 A3011 RMK A01 T03330169  RH  037%=      5-min Rain = 0
KAHS 141838Z 06010KT 34/17 A3011 RMK A01 T03360167  RH  036%=      5-min Rain = 0
KAHS 141839Z 05007KT 34/17 A3011 RMK A01 T03390166  RH  036%=      5-min Rain = 0
KAHS 141840Z 08010KT 34/17 A3011 RMK A01 T03410169  RH  036%=      5-min Rain = 0
KAHS 141841Z 09008KT 35/17 A3011 RMK A01 T03450169  RH  035%=      5-min Rain = 0
KAHS 141842Z 07008KT 35/17 A301 RMK A01 T03460170  RH  035%=      5-min Rain = 0
KAHS 141843Z 07006KT 35/17 A301 RMK A01 T03470173  RH  036%=      5-min Rain = 0
KAHS 141844Z 06007KT 35/17 A301 RMK A01 T03530174  RH  035%=      5-min Rain = 0
KAHS 141845Z 06008G16KT 36/17 A301 RMK A01 T03550172  RH  034%=      5-min Rain = 0
KAHS 141846Z 07011KT 35/17 A301 RMK A01 T03520171  RH  034%=      5-min Rain = 0
KAHS 141847Z 09012KT 35/17 A301 RMK A01 T03490171  RH  035%=      5-min Rain = 0
KAHS 141848Z 10012KT 35/17 A301 RMK A01 T03470168  RH  035%=      5-min Rain = 0
KAHS 141849Z 10011KT 35/16 A301 RMK A01 T03450161  RH  033%=      5-min Rain = 0
KAHS 141850Z 06016G21KT 35/16 A301 RMK A01 T03460158  RH  033%=      5-min Rain = 0
KAHS 141851Z 05017KT 34/15 A301 RMK A01 T03440153  RH  032%=      5-min Rain = 0
KAHS 141852Z 03012G17KT 34/16 A301 RMK A01 T03410157  RH  033%=      5-min Rain = 0
KAHS 141853Z 05006KT 34/16 A301 RMK A01 T03430160  RH  034%=      5-min Rain = 0
KAHS 141854Z 09012KT 35/16 A301 RMK A01 T03460163  RH  034%=      5-min Rain = 0
KAHS 141855Z 08013KT 35/16 A301 RMK A01 T03450164  RH  034%=      5-min Rain = 0
KAHS 141856Z 07009KT 34/17 A301 RMK A01 T03430165  RH  035%=      5-min Rain = 0
KAHS 141857Z 09011KT 35/17 A301 RMK A01 T03460166  RH  034%=      5-min Rain = 0
KAHS 141858Z 09010KT 35/16 A301 RMK A01 T03450164  RH  034%=      5-min Rain = 0
KAHS 141859Z 10007G12KT 34/16 A301 RMK A01 T03410162  RH  034%=      5-min Rain = 0
KAHS 141900Z 09008G17KT 34/17 A301 RMK A01 T03400165  RH  035%=      5-min Rain = 0
KAHS 141901Z 08016KT 34/16 A301 RMK A01 T03410157  RH  033%=      5-min Rain = 0
KAHS 141902Z 06014KT 34/15 A301 RMK A01 T03440152  RH  032%=      5-min Rain = 0
KAHS 141903Z 08013KT 35/15 A301 RMK A01 T03450151  RH  031%=      5-min Rain = 0
KAHS 141904Z 06011KT 34/15 A301 RMK A01 T03420154  RH  032%=      5-min Rain = 0
KAHS 141905Z 05009KT 34/16 A301 RMK A01 T03420155  RH  033%=      5-min Rain = 0
KAHS 141906Z 07011KT 35/16 A301 RMK A01 T03450156  RH  032%=      5-min Rain = 0
KAHS 141907Z 08010G17KT 35/15 A301 RMK A01 T03490151  RH  031%=      5-min Rain = 0
KAHS 141908Z 09009KT 35/15 A301 RMK A01 T03480152  RH  031%=      5-min Rain = 0
KAHS 141909Z 09013KT 35/16 A3009 RMK A01 T03500155  RH  031%=      5-min Rain = 0
KAHS 141910Z 06012KT 35/16 A301 RMK A01 T03500155  RH  031%=      5-min Rain = 0
KAHS 141911Z 07009KT 35/15 A301 RMK A01 T03530154  RH  031%=      5-min Rain = 0
KAHS 141912Z 10009KT 35/15 A3009 RMK A01 T03540151  RH  030%=      5-min Rain = 0
KAHS 141913Z 09009KT 35/15 A3009 RMK A01 T03520151  RH  030%=      5-min Rain = 0
KAHS 141914Z 08012G17KT 35/15 A3009 RMK A01 T03510150  RH  030%=      5-min Rain = 0
KAHS 141915Z 08017KT 35/15 A3009 RMK A01 T03500145  RH  029%=      5-min Rain = 0
KAHS 141916Z 08015KT 35/14 A3009 RMK A01 T03490142  RH  029%=      5-min Rain = 0
KAHS 141917Z 08011KT 35/14 A3009 RMK A01 T03480142  RH  029%=      5-min Rain = 0
KAHS 141918Z 07009KT 35/14 A3009 RMK A01 T03470144  RH  030%=      5-min Rain = 0
KAHS 141919Z 06013G18KT 36/15 A3009 RMK A01 T03550148  RH  029%=      5-min Rain = 0
KAHS 141920Z 07012KT 36/15 A3009 RMK A01 T03550150  RH  029%=      5-min Rain = 0
KAHS 141921Z 08009KT 36/15 A3009 RMK A01 T03560152  RH  030%=      5-min Rain = 0
KAHS 141922Z 08012KT 36/15 A3009 RMK A01 T03600151  RH  029%=      5-min Rain = 0
KAHS 141923Z 09010KT 36/15 A3009 RMK A01 T03590151  RH  029%=      5-min Rain = 0
KAHS 141924Z 09014KT 36/16 A3009 RMK A01 T03560156  RH  031%=      5-min Rain = 0
KAHS 141925Z 08013KT 36/16 A3009 RMK A01 T03550155  RH  030%=      5-min Rain = 0
KAHS 141926Z 08010KT 35/15 A3009 RMK A01 T03510152  RH  031%=      5-min Rain = 0
KAHS 141927Z 07011KT 35/15 A3009 RMK A01 T03480152  RH  031%=      5-min Rain = 0
KAHS 141928Z 07015G20KT 35/15 A3009 RMK A01 T03480148  RH  030%=      5-min Rain = 0
KAHS 141929Z 09013G19KT 35/14 A3009 RMK A01 T03500137  RH  028%=      5-min Rain = 0
KAHS 141930Z 08012G17KT 35/14 A3009 RMK A01 T03530137  RH  027%=      5-min Rain = 0
KAHS 141931Z 06013KT 36/14 A3009 RMK A01 T03570139  RH  027%=      5-min Rain = 0
KAHS 141932Z 07013KT 36/14 A3009 RMK A01 T03560141  RH  028%=      5-min Rain = 0
KAHS 141933Z 07014KT 36/14 A3009 RMK A01 T03580141  RH  027%=      5-min Rain = 0
KAHS 141934Z 07013KT 36/14 A3009 RMK A01 T03550139  RH  027%=      5-min Rain = 0
KAHS 141935Z 07010G15KT 36/14 A3009 RMK A01 T03560138  RH  027%=      5-min Rain = 0
KAHS 141936Z 07008KT 36/14 A3008 RMK A01 T03580135  RH  026%=      5-min Rain = 0
KAHS 141937Z 07009KT 36/14 A3008 RMK A01 T03600136  RH  026%=      5-min Rain = 0
KAHS 141938Z 08008KT 36/14 A3008 RMK A01 T03600137  RH  026%=      5-min Rain = 0
KAHS 141939Z 07009KT 36/14 A3008 RMK A01 T03570139  RH  027%=      5-min Rain = 0
KAHS 141940Z 08010KT 36/15 A3008 RMK A01 T03580145  RH  028%=      5-min Rain = 0
KAHS 141941Z 07008KT 36/15 A3008 RMK A01 T03590149  RH  029%=      5-min Rain = 0
KAHS 141942Z 06011KT 36/15 A3008 RMK A01 T03580150  RH  029%=      5-min Rain = 0
KAHS 141943Z 07013KT 36/15 A3008 RMK A01 T03550152  RH  030%=      5-min Rain = 0
KAHS 141944Z 10012KT 36/16 A3008 RMK A01 T03580155  RH  030%=      5-min Rain = 0
KAHS 141945Z 08011KT 36/15 A3008 RMK A01 T03580154  RH  030%=      5-min Rain = 0
KAHS 141946Z 07012G18KT 36/15 A3008 RMK A01 T03560150  RH  029%=      5-min Rain = 0
KAHS 141947Z 08015KT 36/15 A3008 RMK A01 T03550145  RH  029%=      5-min Rain = 0
KAHS 141948Z 08014KT 36/15 A3008 RMK A01 T03560145  RH  028%=      5-min Rain = 0
KAHS 141949Z 08012KT 36/14 A3008 RMK A01 T03560144  RH  028%=      5-min Rain = 0
KAHS 141950Z 09011KT 35/14 A3008 RMK A01 T03540138  RH  027%=      5-min Rain = 0
KAHS 141951Z 07011KT 35/13 A3008 RMK A01 T03530133  RH  027%=      5-min Rain = 0
KAHS 141952Z 08016KT 36/13 A3008 RMK A01 T03600132  RH  025%=      5-min Rain = 0
KAHS 141953Z 07014G20KT 36/13 A3008 RMK A01 T03570130  RH  026%=      5-min Rain = 0
KAHS 141954Z 07016KT 36/13 A3008 RMK A01 T03580128  RH  025%=      5-min Rain = 0
KAHS 141955Z 08012KT 36/13 A3008 RMK A01 T03590129  RH  025%=      5-min Rain = 0
KAHS 141956Z 07013KT 36/13 A3008 RMK A01 T03610130  RH  025%=      5-min Rain = 0
KAHS 141957Z 06014G19KT 36/13 A3008 RMK A01 T03630133  RH  025%=      5-min Rain = 0
KAHS 141958Z 06012KT 36/13 A3007 RMK A01 T03610134  RH  026%=      5-min Rain = 0
KAHS 141959Z 08011KT 36/14 A3007 RMK A01 T03570136  RH  027%=      5-min Rain = 0
KAHS 142000Z 07011KT 36/14 A3007 RMK A01 T03600136  RH  026%=      5-min Rain = 0
KAHS 142001Z 08010KT 36/14 A3007 RMK A01 T03590138  RH  027%=      5-min Rain = 0
KAHS 142002Z 06011KT 36/14 A3007 RMK A01 T03580139  RH  027%=      5-min Rain = 0
KAHS 142003Z 08007KT 36/14 A3007 RMK A01 T03600142  RH  027%=      5-min Rain = 0
KAHS 142004Z 10011KT 37/14 A3007 RMK A01 T03670139  RH  026%=      5-min Rain = 0
KAHS 142005Z 09006KT 37/14 A3007 RMK A01 T03670137  RH  025%=      5-min Rain = 0
KAHS 142006Z 09006KT 37/14 A3007 RMK A01 T03700138  RH  025%=      5-min Rain = 0
KAHS 142007Z 09014KT 37/14 A3007 RMK A01 T03710138  RH  025%=      5-min Rain = 0
KAHS 142008Z 07015KT 37/14 A3007 RMK A01 T03660138  RH  026%=      5-min Rain = 0
KAHS 142009Z 08013KT 37/14 A3007 RMK A01 T03650139  RH  026%=      5-min Rain = 0
KAHS 142010Z 08012KT 37/14 A3006 RMK A01 T03670135  RH  025%=      5-min Rain = 0
KAHS 142011Z 08014KT 37/14 A3006 RMK A01 T03680136  RH  025%=      5-min Rain = 0
KAHS 142012Z 07014G19KT 37/14 A3006 RMK A01 T03650137  RH  026%=      5-min Rain = 0
KAHS 142013Z 07014KT 36/14 A3006 RMK A01 T03640138  RH  026%=      5-min Rain = 0
KAHS 142014Z 06015KT 36/14 A3006 RMK A01 T03620137  RH  026%=      5-min Rain = 0
KAHS 142015Z 06011G16KT 36/14 A3006 RMK A01 T03620136  RH  026%=      5-min Rain = 0
KAHS 142016Z 07012KT 36/14 A3006 RMK A01 T03640136  RH  026%=      5-min Rain = 0
KAHS 142017Z 07011KT 36/14 A3006 RMK A01 T03630136  RH  026%=      5-min Rain = 0
KAHS 142018Z 07009G15KT 36/14 A3006 RMK A01 T03630137  RH  026%=      5-min Rain = 0
KAHS 142019Z 05007G12KT 36/14 A3006 RMK A01 T03600139  RH  027%=      5-min Rain = 0
KAHS 142020Z 04012KT 36/14 A3005 RMK A01 T03620139  RH  026%=      5-min Rain = 0
KAHS 142021Z 03010G15KT 37/14 A3005 RMK A01 T03650139  RH  026%=      5-min Rain = 0
KAHS 142022Z 04011KT 37/14 A3005 RMK A01 T03680139  RH  026%=      5-min Rain = 0
KAHS 142023Z 05011KT 37/14 A3005 RMK A01 T03700139  RH  025%=      5-min Rain = 0
KAHS 142024Z 07011KT 37/14 A3005 RMK A01 T03710140  RH  025%=      5-min Rain = 0
KAHS 142025Z 06014KT 37/14 A3005 RMK A01 T03680140  RH  026%=      5-min Rain = 0
KAHS 142026Z 07010KT 37/14 A3005 RMK A01 T03650140  RH  026%=      5-min Rain = 0
KAHS 142027Z 08010G15KT 36/14 A3005 RMK A01 T03610137  RH  026%=      5-min Rain = 0
KAHS 142028Z 07012KT 36/14 A3005 RMK A01 T03580138  RH  027%=      5-min Rain = 0
KAHS 142029Z 07014KT 36/14 A3005 RMK A01 T03610138  RH  026%=      5-min Rain = 0
KAHS 142030Z 08013KT 36/14 A3004 RMK A01 T03600137  RH  026%=      5-min Rain = 0
KAHS 142031Z 06013KT 36/14 A3004 RMK A01 T03600139  RH  027%=      5-min Rain = 0
KAHS 142032Z 06012KT 36/14 A3004 RMK A01 T03600139  RH  027%=      5-min Rain = 0
KAHS 142033Z 05008KT 36/14 A3004 RMK A01 T03600139  RH  027%=      5-min Rain = 0
KAHS 142034Z 07009KT 36/14 A3004 RMK A01 T03610140  RH  027%=      5-min Rain = 0
KAHS 142035Z 06011KT 36/14 A3004 RMK A01 T03610140  RH  027%=      5-min Rain = 0
KAHS 142036Z 05012KT 36/14 A3004 RMK A01 T03640139  RH  026%=      5-min Rain = 0
KAHS 142037Z 06013G18KT 36/14 A3004 RMK A01 T03640138  RH  026%=      5-min Rain = 0
KAHS 142038Z 06015KT 36/14 A3004 RMK A01 T03640139  RH  026%=      5-min Rain = 0
KAHS 142039Z 06012KT 36/14 A3004 RMK A01 T03610139  RH  027%=      5-min Rain = 0
KAHS 142040Z 08014KT 36/14 A3004 RMK A01 T03600142  RH  027%=      5-min Rain = 0
KAHS 142041Z 08010KT 36/14 A3004 RMK A01 T03600142  RH  027%=      5-min Rain = 0
KAHS 142042Z 07009KT 37/14 A3004 RMK A01 T03650141  RH  026%=      5-min Rain = 0
KAHS 142043Z 08008G14KT 37/14 A3004 RMK A01 T03650139  RH  026%=      5-min Rain = 0
KAHS 142044Z 06010KT 36/14 A3004 RMK A01 T03620140  RH  027%=      5-min Rain = 0
KAHS 142045Z 05012KT 37/14 A3004 RMK A01 T03650140  RH  026%=      5-min Rain = 0
KAHS 142046Z 05011KT 37/14 A3004 RMK A01 T03660137  RH  025%=      5-min Rain = 0
KAHS 142047Z 05010KT 36/14 A3004 RMK A01 T03630140  RH  026%=      5-min Rain = 0
KAHS 142048Z 04010G15KT 37/14 A3004 RMK A01 T03650144  RH  027%=      5-min Rain = 0
KAHS 142049Z 07010KT 37/15 A3004 RMK A01 T03690145  RH  026%=      5-min Rain = 0
KAHS 142050Z 07013G19KT 37/14 A3004 RMK A01 T03720144  RH  026%=      5-min Rain = 0
KAHS 142051Z 07011KT 37/14 A3004 RMK A01 T03700143  RH  026%=      5-min Rain = 0
KAHS 142052Z 06014KT 37/14 A3004 RMK A01 T03690143  RH  026%=      5-min Rain = 0
KAHS 142053Z 06013KT 37/14 A3004 RMK A01 T03660140  RH  026%=      5-min Rain = 0
KAHS 142054Z 04012KT 37/14 A3004 RMK A01 T03650141  RH  026%=      5-min Rain = 0
KAHS 142055Z 05014KT 37/14 A3004 RMK A01 T03650139  RH  026%=      5-min Rain = 0
KAHS 142056Z 06012G17KT 37/14 A3004 RMK A01 T03650139  RH  026%=      5-min Rain = 0
KAHS 142057Z 08013KT 37/14 A3004 RMK A01 T03680137  RH  025%=      5-min Rain = 0
KAHS 142058Z 09011G16KT 37/14 A3004 RMK A01 T03660139  RH  026%=      5-min Rain = 0
KAHS 142059Z 10009KT 36/14 A3004 RMK A01 T03630140  RH  026%=      5-min Rain = 0
KAHS 142100Z 10009KT 36/14 A3004 RMK A01 T03620140  RH  027%=      5-min Rain = 0
KAHS 142101Z 06007KT 36/14 A3004 RMK A01 T03610142  RH  027%=      5-min Rain = 0
KAHS 142102Z 05012KT 37/14 A3004 RMK A01 T03650144  RH  027%=      5-min Rain = 0
KAHS 142103Z 07012KT 37/14 A3004 RMK A01 T03660144  RH  027%=      5-min Rain = 0
KAHS 142104Z 08014KT 37/14 A3004 RMK A01 T03670142  RH  026%=      5-min Rain = 0
KAHS 142105Z 07012KT 36/14 A3004 RMK A01 T03640142  RH  027%=      5-min Rain = 0
KAHS 142106Z 08009KT 36/14 A3004 RMK A01 T03620141  RH  027%=      5-min Rain = 0
KAHS 142107Z 08009KT 36/14 A3004 RMK A01 T03620141  RH  027%=      5-min Rain = 0
KAHS 142108Z 08007KT 36/14 A3004 RMK A01 T03620140  RH  027%=      5-min Rain = 0
KAHS 142109Z 10012KT 36/14 A3004 RMK A01 T03640142  RH  027%=      5-min Rain = 0
KAHS 142110Z 10011KT 36/14 A3003 RMK A01 T03610144  RH  027%=      5-min Rain = 0
KAHS 142111Z 08011KT 36/15 A3003 RMK A01 T03610145  RH  028%=      5-min Rain = 0
KAHS 142112Z 08011KT 36/15 A3003 RMK A01 T03630146  RH  028%=      5-min Rain = 0
KAHS 142113Z 08014G19KT 37/14 A3003 RMK A01 T03660144  RH  027%=      5-min Rain = 0
KAHS 142114Z 07011KT 37/14 A3003 RMK A01 T03690144  RH  026%=      5-min Rain = 0
KAHS 142115Z 07010KT 37/14 A3003 RMK A01 T03700144  RH  026%=      5-min Rain = 0
KAHS 142116Z 06008G13KT 37/15 A3003 RMK A01 T03720145  RH  026%=      5-min Rain = 0
KAHS 142117Z 05010KT 38/15 A3003 RMK A01 T03780145  RH  025%=      5-min Rain = 0
KAHS 142118Z 06009KT 38/14 A3003 RMK A01 T03760143  RH  025%=      5-min Rain = 0
KAHS 142119Z 07010KT 37/14 A3003 RMK A01 T03700143  RH  026%=      5-min Rain = 0
KAHS 142120Z 07012G18KT 37/14 A3003 RMK A01 T03670144  RH  026%=      5-min Rain = 0
KAHS 142121Z 07014KT 37/14 A3003 RMK A01 T03670144  RH  026%=      5-min Rain = 0
KAHS 142122Z 07014KT 37/14 A3003 RMK A01 T03670143  RH  026%=      5-min Rain = 0
KAHS 142123Z 08012KT 36/14 A3003 RMK A01 T03640143  RH  027%=      5-min Rain = 0
KAHS 142124Z 08011KT 36/14 A3003 RMK A01 T03610143  RH  027%=      5-min Rain = 0
KAHS 142125Z 07010KT 36/14 A3003 RMK A01 T03620143  RH  027%=      5-min Rain = 0
KAHS 142126Z 06013KT 36/14 A3003 RMK A01 T03620142  RH  027%=      5-min Rain = 0
KAHS 142127Z 07013KT 36/14 A3003 RMK A01 T03610142  RH  027%=      5-min Rain = 0
KAHS 142128Z 07012KT 36/14 A3003 RMK A01 T03600144  RH  028%=      5-min Rain = 0
KAHS 142129Z 08012G19KT 36/15 A3003 RMK A01 T03620146  RH  028%=      5-min Rain = 0
KAHS 142130Z 07017KT 36/15 A3003 RMK A01 T03640145  RH  027%=      5-min Rain = 0
KAHS 142131Z 06014KT 36/15 A3003 RMK A01 T03620146  RH  028%=      5-min Rain = 0
KAHS 142132Z 05012KT 36/15 A3003 RMK A01 T03630147  RH  028%=      5-min Rain = 0
KAHS 142133Z 05010KT 36/15 A3003 RMK A01 T03630146  RH  027%=      5-min Rain = 0
KAHS 142134Z 05009KT 36/14 A3003 RMK A01 T03620144  RH  027%=      5-min Rain = 0
KAHS 142135Z 05008KT 36/15 A3003 RMK A01 T03610145  RH  027%=      5-min Rain = 0
KAHS 142136Z 03008KT 36/15 A3003 RMK A01 T03610145  RH  027%=      5-min Rain = 0
KAHS 142137Z 04005KT 36/15 A3003 RMK A01 T03620145  RH  027%=      5-min Rain = 0
KAHS 142138Z 03005KT 36/15 A3003 RMK A01 T03630145  RH  027%=      5-min Rain = 0
KAHS 142139Z 04007KT 37/15 A3003 RMK A01 T03650145  RH  027%=      5-min Rain = 0
KAHS 142140Z 06010G16KT 37/14 A3003 RMK A01 T03670143  RH  026%=      5-min Rain = 0
KAHS 142141Z 06008KT 37/14 A3003 RMK A01 T03650141  RH  026%=      5-min Rain = 0
KAHS 142142Z 07008KT 36/14 A3003 RMK A01 T03640142  RH  027%=      5-min Rain = 0
KAHS 142143Z 07010KT 37/14 A3003 RMK A01 T03680142  RH  026%=      5-min Rain = 0
KAHS 142144Z 06011KT 37/14 A3003 RMK A01 T03730141  RH  025%=      5-min Rain = 0
KAHS 142145Z 07015KT 37/14 A3003 RMK A01 T03710139  RH  025%=      5-min Rain = 0
KAHS 142146Z 06011G16KT 37/14 A3003 RMK A01 T03670138  RH  026%=      5-min Rain = 0
KAHS 142147Z 06012KT 37/14 A3003 RMK A01 T03670136  RH  025%=      5-min Rain = 0
KAHS 142148Z 06009KT 37/14 A3003 RMK A01 T03660135  RH  025%=      5-min Rain = 0
KAHS 142149Z 05006G12KT 37/13 A3003 RMK A01 T03650134  RH  025%=      5-min Rain = 0
KAHS 142150Z 05009KT 37/13 A3003 RMK A01 T03680133  RH  025%=      5-min Rain = 0
KAHS 142151Z 04008KT 37/13 A3002 RMK A01 T03680130  RH  024%=      5-min Rain = 0
KAHS 142152Z 05004KT 37/13 A3002 RMK A01 T03670130  RH  024%=      5-min Rain = 0
KAHS 142153Z 05008KT 37/13 A3002 RMK A01 T03670134  RH  025%=      5-min Rain = 0
KAHS 142154Z 07007KT 37/14 A3002 RMK A01 T03680135  RH  025%=      5-min Rain = 0
KAHS 142155Z 10003KT 37/14 A3002 RMK A01 T03700137  RH  025%=      5-min Rain = 0
KAHS 142156Z 09010KT 37/15 A3002 RMK A01 T03740149  RH  026%=      5-min Rain = 0
KAHS 142157Z 09014KT 37/15 A3002 RMK A01 T03710149  RH  027%=      5-min Rain = 0
KAHS 142158Z 09012G17KT 37/15 A3002 RMK A01 T03660149  RH  028%=      5-min Rain = 0
KAHS 142159Z 08006KT 36/15 A3002 RMK A01 T03630149  RH  028%=      5-min Rain = 0
KAHS 142200Z 09008KT 36/15 A3002 RMK A01 T03620150  RH  028%=      5-min Rain = 0
KAHS 142201Z 08014KT 36/15 A3002 RMK A01 T03640150  RH  028%=      5-min Rain = 0
KAHS 142202Z 08012KT 36/15 A3002 RMK A01 T03620149  RH  028%=      5-min Rain = 0
KAHS 142203Z 10012KT 36/15 A3002 RMK A01 T03620149  RH  028%=      5-min Rain = 0
KAHS 142204Z 09012KT 36/15 A3002 RMK A01 T03620149  RH  028%=      5-min Rain = 0
KAHS 142205Z 09010KT 37/15 A3002 RMK A01 T03660150  RH  028%=      5-min Rain = 0
KAHS 142206Z 08012KT 37/15 A3002 RMK A01 T03650149  RH  028%=      5-min Rain = 0
KAHS 142207Z 10009KT 36/15 A3002 RMK A01 T03620150  RH  028%=      5-min Rain = 0
KAHS 142208Z 11007KT 36/15 A3002 RMK A01 T03640151  RH  028%=      5-min Rain = 0
KAHS 142209Z 10009KT 37/15 A3002 RMK A01 T03650151  RH  028%=      5-min Rain = 0
KAHS 142210Z 10010KT 37/15 A3002 RMK A01 T03660152  RH  028%=      5-min Rain = 0
KAHS 142211Z 10011KT 36/15 A3002 RMK A01 T03640150  RH  028%=      5-min Rain = 0
KAHS 142212Z 10007KT 36/15 A3002 RMK A01 T03580150  RH  029%=      5-min Rain = 0
KAHS 142213Z 10003KT 36/15 A3002 RMK A01 T03570150  RH  029%=      5-min Rain = 0
KAHS 142214Z 11003KT 36/15 A3001 RMK A01 T03580151  RH  029%=      5-min Rain = 0
KAHS 142215Z 13004G9KT 36/15 A3001 RMK A01 T03610152  RH  029%=      5-min Rain = 0
KAHS 142216Z 11012KT 36/15 A3001 RMK A01 T03640150  RH  028%=      5-min Rain = 0
KAHS 142217Z 09013KT 36/15 A3002 RMK A01 T03630148  RH  028%=      5-min Rain = 0
KAHS 142218Z 10012KT 36/15 A3002 RMK A01 T03620147  RH  028%=      5-min Rain = 0
KAHS 142219Z 10010KT 36/15 A3002 RMK A01 T03620147  RH  028%=      5-min Rain = 0
KAHS 142220Z 10006KT 36/15 A3002 RMK A01 T03640146  RH  027%=      5-min Rain = 0
KAHS 142221Z 09006KT 36/14 A3002 RMK A01 T03640144  RH  027%=      5-min Rain = 0
KAHS 142222Z 08009KT 36/15 A3002 RMK A01 T03630145  RH  027%=      5-min Rain = 0
KAHS 142223Z 06014KT 36/15 A3001 RMK A01 T03640146  RH  027%=      5-min Rain = 0
KAHS 142224Z 07013KT 36/14 A3002 RMK A01 T03640144  RH  027%=      5-min Rain = 0
KAHS 142225Z 08011KT 36/14 A3002 RMK A01 T03630141  RH  027%=      5-min Rain = 0
KAHS 142226Z 08008KT 36/14 A3002 RMK A01 T03630143  RH  027%=      5-min Rain = 0
KAHS 142227Z 08008G13KT 37/14 A3002 RMK A01 T03670144  RH  026%=      5-min Rain = 0
KAHS 142228Z 05007KT 36/15 A3001 RMK A01 T03640145  RH  027%=      5-min Rain = 0
KAHS 142229Z 06003KT 36/15 A3001 RMK A01 T03620146  RH  028%=      5-min Rain = 0
KAHS 142230Z 09007KT 36/15 A3001 RMK A01 T03620146  RH  028%=      5-min Rain = 0
KAHS 142231Z 10008KT 36/15 A3001 RMK A01 T03600146  RH  028%=      5-min Rain = 0
KAHS 142232Z 12009KT 36/15 A3001 RMK A01 T03620146  RH  028%=      5-min Rain = 0
KAHS 142233Z 12009KT 36/15 A3001 RMK A01 T03610145  RH  028%=      5-min Rain = 0
KAHS 142234Z 13008KT 36/15 A3001 RMK A01 T03620146  RH  028%=      5-min Rain = 0
KAHS 142235Z 12013KT 36/15 A3001 RMK A01 T03640146  RH  027%=      5-min Rain = 0
KAHS 142236Z 08011KT 36/15 A3001 RMK A01 T03640146  RH  027%=      5-min Rain = 0
KAHS 142237Z 06010KT 36/15 A3002 RMK A01 T03640145  RH  027%=      5-min Rain = 0
KAHS 142238Z 07010KT 36/15 A3001 RMK A01 T03620145  RH  028%=      5-min Rain = 0
KAHS 142239Z 07012KT 36/15 A3001 RMK A01 T03610146  RH  028%=      5-min Rain = 0
KAHS 142240Z 07012KT 36/14 A3002 RMK A01 T03590144  RH  028%=      5-min Rain = 0
KAHS 142241Z 07009KT 36/15 A3002 RMK A01 T03590145  RH  028%=      5-min Rain = 0
KAHS 142242Z 07006KT 36/15 A3002 RMK A01 T03600146  RH  028%=      5-min Rain = 0
KAHS 142243Z 07008KT 36/15 A3002 RMK A01 T03610145  RH  028%=      5-min Rain = 0
KAHS 142244Z 05008KT 36/15 A3002 RMK A01 T03600145  RH  028%=      5-min Rain = 0
KAHS 142245Z 03005KT 36/15 A3002 RMK A01 T03600147  RH  028%=      5-min Rain = 0
KAHS 142246Z 36004KT 36/15 A3001 RMK A01 T03600147  RH  028%=      5-min Rain = 0
KAHS 142247Z 07003KT 36/15 A3001 RMK A01 T03600147  RH  028%=      5-min Rain = 0
KAHS 142248Z 09006KT 36/15 A3001 RMK A01 T03620147  RH  028%=      5-min Rain = 0
KAHS 142249Z 09008KT 36/15 A3001 RMK A01 T03640149  RH  028%=      5-min Rain = 0
KAHS 142250Z 07009KT 36/15 A3002 RMK A01 T03630151  RH  028%=      5-min Rain = 0
KAHS 142251Z 07010KT 36/15 A3002 RMK A01 T03620152  RH  029%=      5-min Rain = 0
KAHS 142252Z 05008KT 36/15 A3002 RMK A01 T03590151  RH  029%=      5-min Rain = 0
KAHS 142253Z 05004KT 36/15 A3002 RMK A01 T03570152  RH  029%=      5-min Rain = 0
KAHS 142254Z 07007KT 36/15 A3001 RMK A01 T03570152  RH  029%=      5-min Rain = 0
KAHS 142255Z 08007KT 36/15 A3002 RMK A01 T03610152  RH  029%=      5-min Rain = 0
KAHS 142256Z 07007KT 36/15 A3002 RMK A01 T03640152  RH  028%=      5-min Rain = 0
KAHS 142257Z 08009KT 36/15 A3001 RMK A01 T03620151  RH  029%=      5-min Rain = 0
KAHS 142258Z 08011KT 36/15 A3001 RMK A01 T03620151  RH  028%=      5-min Rain = 0
KAHS 142259Z 07013KT 36/15 A3002 RMK A01 T03620149  RH  028%=      5-min Rain = 0
KAHS 142300Z 07009KT 36/15 A3002 RMK A01 T03600147  RH  028%=      5-min Rain = 0
KAHS 142301Z 08009KT 36/15 A3001 RMK A01 T03610147  RH  028%=      5-min Rain = 0
KAHS 142302Z 07011KT 36/15 A3002 RMK A01 T03630147  RH  028%=      5-min Rain = 0
KAHS 142303Z 07012KT 36/15 A3002 RMK A01 T03610147  RH  028%=      5-min Rain = 0
KAHS 142304Z 07010KT 36/15 A3002 RMK A01 T03590148  RH  028%=      5-min Rain = 0
KAHS 142305Z 07009KT 36/15 A3002 RMK A01 T03580148  RH  029%=      5-min Rain = 0
KAHS 142306Z 08010KT 36/15 A3002 RMK A01 T03580147  RH  028%=      5-min Rain = 0
KAHS 142307Z 09010KT 36/15 A3002 RMK A01 T03600147  RH  028%=      5-min Rain = 0
KAHS 142308Z 10008KT 36/15 A3002 RMK A01 T03590145  RH  028%=      5-min Rain = 0
KAHS 142309Z 10010KT 36/15 A3002 RMK A01 T03570146  RH  028%=      5-min Rain = 0
KAHS 142310Z 09010KT 36/15 A3002 RMK A01 T03580145  RH  028%=      5-min Rain = 0
KAHS 142311Z 08007KT 36/15 A3002 RMK A01 T03560145  RH  028%=      5-min Rain = 0
KAHS 142312Z 07005KT 36/15 A3002 RMK A01 T03580148  RH  029%=      5-min Rain = 0
KAHS 142313Z 06006KT 36/15 A3002 RMK A01 T03600149  RH  028%=      5-min Rain = 0
KAHS 142314Z 06005KT 36/15 A3002 RMK A01 T03630149  RH  028%=      5-min Rain = 0
KAHS 142315Z 07005G10KT 37/15 A3002 RMK A01 T03650148  RH  028%=      5-min Rain = 0
KAHS 142316Z 11008KT 37/15 A3002 RMK A01 T03650153  RH  028%=      5-min Rain = 0
KAHS 142317Z 12008KT 36/16 A3002 RMK A01 T03620155  RH  029%=      5-min Rain = 0
KAHS 142318Z 12007KT 36/16 A3002 RMK A01 T03600155  RH  030%=      5-min Rain = 0
KAHS 142319Z 10007KT 36/16 A3002 RMK A01 T03600155  RH  030%=      5-min Rain = 0
KAHS 142320Z 11008KT 36/15 A3002 RMK A01 T03590154  RH  029%=      5-min Rain = 0
KAHS 142321Z 09009KT 36/15 A3002 RMK A01 T03590151  RH  029%=      5-min Rain = 0
KAHS 142322Z 10008KT 36/15 A3002 RMK A01 T03590150  RH  029%=      5-min Rain = 0
KAHS 142323Z 10010KT 36/15 A3001 RMK A01 T03590149  RH  029%=      5-min Rain = 0
KAHS 142324Z 08014KT 36/15 A3002 RMK A01 T03580149  RH  029%=      5-min Rain = 0
KAHS 142325Z 08012KT 36/15 A3002 RMK A01 T03580148  RH  029%=      5-min Rain = 0
KAHS 142326Z 07011KT 36/15 A3002 RMK A01 T03580148  RH  029%=      5-min Rain = 0
KAHS 142327Z 07008KT 36/15 A3002 RMK A01 T03570147  RH  029%=      5-min Rain = 0
KAHS 142328Z 08009KT 36/15 A3002 RMK A01 T03570147  RH  029%=      5-min Rain = 0
KAHS 142329Z 08009KT 36/15 A3002 RMK A01 T03570148  RH  029%=      5-min Rain = 0
KAHS 142330Z 06009KT 36/15 A3002 RMK A01 T03560149  RH  029%=      5-min Rain = 0
KAHS 142331Z 06006KT 35/15 A3002 RMK A01 T03540148  RH  029%=      5-min Rain = 0
KAHS 142332Z 05007KT 36/15 A3002 RMK A01 T03550149  RH  029%=      5-min Rain = 0
KAHS 142333Z 08007KT 36/15 A3002 RMK A01 T03570150  RH  029%=      5-min Rain = 0
KAHS 142334Z 06009KT 36/15 A3002 RMK A01 T03590149  RH  029%=      5-min Rain = 0
KAHS 142335Z 05007KT 36/15 A3002 RMK A01 T03580149  RH  029%=      5-min Rain = 0
KAHS 142336Z 05009KT 36/15 A3002 RMK A01 T03590149  RH  029%=      5-min Rain = 0
KAHS 142337Z 05007KT 36/15 A3002 RMK A01 T03580148  RH  029%=      5-min Rain = 0
KAHS 142338Z 09007KT 36/15 A3002 RMK A01 T03580149  RH  029%=      5-min Rain = 0
KAHS 142339Z 09006KT 36/15 A3002 RMK A01 T03590149  RH  029%=      5-min Rain = 0
KAHS 142340Z 09008KT 36/15 A3002 RMK A01 T03590149  RH  029%=      5-min Rain = 0
KAHS 142341Z 10007KT 36/15 A3002 RMK A01 T03580150  RH  029%=      5-min Rain = 0
KAHS 142342Z 09009KT 36/15 A3002 RMK A01 T03580153  RH  030%=      5-min Rain = 0
KAHS 142343Z 09011KT 36/15 A3002 RMK A01 T03580154  RH  030%=      5-min Rain = 0
KAHS 142344Z 10010KT 36/16 A3002 RMK A01 T03560155  RH  030%=      5-min Rain = 0
KAHS 142345Z 09009KT 35/16 A3002 RMK A01 T03530156  RH  031%=      5-min Rain = 0
KAHS 142346Z 07008KT 35/16 A3001 RMK A01 T03530156  RH  031%=      5-min Rain = 0
KAHS 142347Z 09008KT 35/16 A3001 RMK A01 T03530156  RH  031%=      5-min Rain = 0
KAHS 142348Z 11013KT 35/16 A3001 RMK A01 T03530156  RH  031%=      5-min Rain = 0
KAHS 142349Z 11012KT 35/16 A3001 RMK A01 T03510157  RH  031%=      5-min Rain = 0
KAHS 142350Z 10008KT 35/16 A3001 RMK A01 T03500156  RH  032%=      5-min Rain = 0
KAHS 142351Z 10007KT 35/16 A3001 RMK A01 T03510157  RH  031%=      5-min Rain = 0
KAHS 142352Z 09009G14KT 35/16 A3001 RMK A01 T03520157  RH  031%=      5-min Rain = 0
KAHS 142353Z 09009KT 35/16 A3001 RMK A01 T03530156  RH  031%=      5-min Rain = 0
KAHS 142354Z 09011KT 35/16 A3001 RMK A01 T03530155  RH  031%=      5-min Rain = 0
KAHS 142355Z 10009KT 35/15 A3001 RMK A01 T03520154  RH  031%=      5-min Rain = 0
KAHS 142356Z 10007KT 35/16 A3001 RMK A01 T03510155  RH  031%=      5-min Rain = 0
KAHS 142357Z 08006KT 35/16 A3001 RMK A01 T03520155  RH  031%=      5-min Rain = 0
KAHS 142358Z 09009KT 35/16 A3001 RMK A01 T03540156  RH  031%=      5-min Rain = 0
KAHS 142359Z 10012KT 35/16 A3001 RMK A01 T03530155  RH  031%=      5-min Rain = 0
KAHS 150000Z 09010G15KT 35/16 A3001 RMK A01 T03520155  RH  031%=      5-min Rain = 0
KAHS 150001Z 09010KT 35/15 A3001 RMK A01 T03520154  RH  031%=      5-min Rain = 0
KAHS 150002Z 09009KT 35/15 A3001 RMK A01 T03510154  RH  031%=      5-min Rain = 0
KAHS 150003Z 09007KT 35/15 A3001 RMK A01 T03510154  RH  031%=      5-min Rain = 0
KAHS 150004Z 08008KT 35/15 A3001 RMK A01 T03510153  RH  031%=      5-min Rain = 0
KAHS 150005Z 11004KT 35/15 A3001 RMK A01 T03510154  RH  031%=      5-min Rain = 0
KAHS 150006Z 11006KT 35/15 A3001 RMK A01 T03510154  RH  031%=      5-min Rain = 0
KAHS 150007Z 09009KT 35/16 A3001 RMK A01 T03510156  RH  031%=      5-min Rain = 0
KAHS 150008Z 09009KT 35/16 A3001 RMK A01 T03510158  RH  032%=      5-min Rain = 0
KAHS 150009Z 11008KT 35/16 A3001 RMK A01 T03500158  RH  032%=      5-min Rain = 0
KAHS 150010Z 10008KT 35/16 A3001 RMK A01 T03480159  RH  032%=      5-min Rain = 0
KAHS 150011Z 10009KT 35/16 A3001 RMK A01 T03460159  RH  033%=      5-min Rain = 0
KAHS 150012Z 11006KT 34/16 A3001 RMK A01 T03440159  RH  033%=      5-min Rain = 0
KAHS 150013Z 11006KT 34/16 A3001 RMK A01 T03440160  RH  033%=      5-min Rain = 0
KAHS 150014Z 11007KT 35/16 A3001 RMK A01 T03450160  RH  033%=      5-min Rain = 0
KAHS 150015Z 10011KT 34/16 A3001 RMK A01 T03440160  RH  033%=      5-min Rain = 0
KAHS 150016Z 11009KT 34/16 A3001 RMK A01 T03430160  RH  033%=      5-min Rain = 0
KAHS 150017Z 10007KT 34/16 A3001 RMK A01 T03430160  RH  034%=      5-min Rain = 0
KAHS 150018Z 12007KT 34/16 A3001 RMK A01 T03410160  RH  034%=      5-min Rain = 0
KAHS 150019Z 11008KT 34/16 A3001 RMK A01 T03410160  RH  034%=      5-min Rain = 0
KAHS 150020Z 10008KT 34/16 A3001 RMK A01 T03400159  RH  034%=      5-min Rain = 0
KAHS 150021Z 09009KT 34/16 A3001 RMK A01 T03400158  RH  034%=      5-min Rain = 0
KAHS 150022Z 09010KT 34/16 A3001 RMK A01 T03410157  RH  033%=      5-min Rain = 0
KAHS 150023Z 09007KT 34/16 A3001 RMK A01 T03430157  RH  033%=      5-min Rain = 0
KAHS 150024Z 11005KT 35/16 A3001 RMK A01 T03450158  RH  033%=      5-min Rain = 0
KAHS 150025Z 10009KT 35/16 A3001 RMK A01 T03460157  RH  033%=      5-min Rain = 0
KAHS 150026Z 10008KT 35/16 A3001 RMK A01 T03450156  RH  032%=      5-min Rain = 0
KAHS 150027Z 10008KT 35/16 A3001 RMK A01 T03450157  RH  033%=      5-min Rain = 0
KAHS 150028Z 11009KT 35/16 A3001 RMK A01 T03450157  RH  033%=      5-min Rain = 0
KAHS 150029Z 11009KT 34/16 A3001 RMK A01 T03430157  RH  033%=      5-min Rain = 0
KAHS 150030Z 11007KT 34/16 A3001 RMK A01 T03430157  RH  033%=      5-min Rain = 0
KAHS 150031Z 10005KT 34/16 A3002 RMK A01 T03430157  RH  033%=      5-min Rain = 0
KAHS 150032Z 10007KT 34/16 A3002 RMK A01 T03430157  RH  033%=      5-min Rain = 0
KAHS 150033Z 10008KT 34/16 A3002 RMK A01 T03430158  RH  033%=      5-min Rain = 0
KAHS 150034Z 10005KT 34/16 A3002 RMK A01 T03430158  RH  033%=      5-min Rain = 0
KAHS 150035Z 10005KT 34/16 A3002 RMK A01 T03440158  RH  033%=      5-min Rain = 0
KAHS 150036Z 10008KT 34/16 A3002 RMK A01 T03440157  RH  033%=      5-min Rain = 0
KAHS 150037Z 10007KT 34/16 A3002 RMK A01 T03430157  RH  033%=      5-min Rain = 0
KAHS 150038Z 10009KT 34/16 A3002 RMK A01 T03430157  RH  033%=      5-min Rain = 0
KAHS 150039Z 10008KT 34/16 A3002 RMK A01 T03420156  RH  033%=      5-min Rain = 0
KAHS 150040Z 09008KT 34/16 A3002 RMK A01 T03410156  RH  033%=      5-min Rain = 0
KAHS 150041Z 09008KT 34/16 A3002 RMK A01 T03400156  RH  033%=      5-min Rain = 0
KAHS 150042Z 09007KT 34/16 A3002 RMK A01 T03400157  RH  033%=      5-min Rain = 0
KAHS 150043Z 09006KT 34/16 A3002 RMK A01 T03410159  RH  034%=      5-min Rain = 0
KAHS 150044Z 10006KT 34/16 A3002 RMK A01 T03410160  RH  034%=      5-min Rain = 0
KAHS 150045Z 10008KT 34/16 A3002 RMK A01 T03410161  RH  034%=      5-min Rain = 0
KAHS 150046Z 10008KT 34/16 A3002 RMK A01 T03400162  RH  035%=      5-min Rain = 0
KAHS 150047Z 10008KT 34/16 A3002 RMK A01 T03400163  RH  035%=      5-min Rain = 0
KAHS 150048Z 09012KT 34/16 A3003 RMK A01 T03390163  RH  035%=      5-min Rain = 0
KAHS 150049Z 09009KT 34/16 A3003 RMK A01 T03380163  RH  035%=      5-min Rain = 0
KAHS 150050Z 09009KT 34/16 A3003 RMK A01 T03380163  RH  035%=      5-min Rain = 0
KAHS 150051Z 09012KT 34/16 A3003 RMK A01 T03370163  RH  035%=      5-min Rain = 0
KAHS 150052Z 09010KT 34/16 A3003 RMK A01 T03360162  RH  035%=      5-min Rain = 0
KAHS 150053Z 09010KT 34/16 A3003 RMK A01 T03360162  RH  035%=      5-min Rain = 0
KAHS 150054Z 09008KT 34/16 A3003 RMK A01 T03360163  RH  036%=      5-min Rain = 0
KAHS 150055Z 10009KT 34/16 A3003 RMK A01 T03360163  RH  036%=      5-min Rain = 0
KAHS 150056Z 11008KT 34/16 A3003 RMK A01 T03350162  RH  036%=      5-min Rain = 0
KAHS 150057Z 10007KT 34/16 A3003 RMK A01 T03350163  RH  036%=      5-min Rain = 0
KAHS 150058Z 11009KT 34/16 A3003 RMK A01 T03350162  RH  036%=      5-min Rain = 0
KAHS 150059Z 12010KT 33/16 A3003 RMK A01 T03340162  RH  036%=      5-min Rain = 0
KAHS 150100Z 11008KT 33/16 A3003 RMK A01 T03340162  RH  036%=      5-min Rain = 0
KAHS 150101Z 10007KT 33/16 A3003 RMK A01 T03340162  RH  036%=      5-min Rain = 0
KAHS 150102Z 11006KT 33/16 A3003 RMK A01 T03330162  RH  036%=      5-min Rain = 0
KAHS 150103Z 10007KT 33/16 A3003 RMK A01 T03330162  RH  036%=      5-min Rain = 0
KAHS 150104Z 10006KT 33/16 A3003 RMK A01 T03330162  RH  036%=      5-min Rain = 0
KAHS 150105Z 09008KT 33/16 A3003 RMK A01 T03330162  RH  036%=      5-min Rain = 0
KAHS 150106Z 08009KT 33/16 A3003 RMK A01 T03320162  RH  036%=      5-min Rain = 0
KAHS 150107Z 08008KT 33/16 A3003 RMK A01 T03320162  RH  036%=      5-min Rain = 0
KAHS 150108Z 09009KT 33/16 A3003 RMK A01 T03310162  RH  036%=      5-min Rain = 0
KAHS 150109Z 09008KT 33/16 A3003 RMK A01 T03310162  RH  036%=      5-min Rain = 0
KAHS 150110Z 09009KT 33/16 A3003 RMK A01 T03300162  RH  036%=      5-min Rain = 0
KAHS 150111Z 09008KT 33/16 A3003 RMK A01 T03300162  RH  037%=      5-min Rain = 0
KAHS 150112Z 09009KT 33/16 A3003 RMK A01 T03290162  RH  037%=      5-min Rain = 0
KAHS 150113Z 08008KT 33/16 A3003 RMK A01 T03290162  RH  037%=      5-min Rain = 0
KAHS 150114Z 09008KT 33/16 A3003 RMK A01 T03290162  RH  037%=      5-min Rain = 0
KAHS 150115Z 09008KT 33/16 A3003 RMK A01 T03290162  RH  037%=      5-min Rain = 0
KAHS 150116Z 10008KT 33/16 A3003 RMK A01 T03290162  RH  037%=      5-min Rain = 0
KAHS 150117Z 10011KT 33/16 A3003 RMK A01 T03280160  RH  037%=      5-min Rain = 0
KAHS 150118Z 10011KT 33/16 A3003 RMK A01 T03280160  RH  036%=      5-min Rain = 0
KAHS 150119Z 11009KT 33/16 A3003 RMK A01 T03280159  RH  036%=      5-min Rain = 0
KAHS 150120Z 10008KT 33/16 A3003 RMK A01 T03280160  RH  036%=      5-min Rain = 0
KAHS 150121Z 10007KT 33/16 A3004 RMK A01 T03270160  RH  037%=      5-min Rain = 0
KAHS 150122Z 10008KT 33/16 A3004 RMK A01 T03270160  RH  037%=      5-min Rain = 0
KAHS 150123Z 09007KT 33/16 A3004 RMK A01 T03260160  RH  037%=      5-min Rain = 0
KAHS 150124Z 10007KT 33/16 A3004 RMK A01 T03260160  RH  037%=      5-min Rain = 0
KAHS 150125Z 09007KT 33/16 A3004 RMK A01 T03250160  RH  037%=      5-min Rain = 0
KAHS 150126Z 09008KT 33/16 A3004 RMK A01 T03250160  RH  037%=      5-min Rain = 0
KAHS 150127Z 09008KT 32/16 A3004 RMK A01 T03240160  RH  037%=      5-min Rain = 0
KAHS 150128Z 09009KT 32/16 A3004 RMK A01 T03240160  RH  037%=      5-min Rain = 0
KAHS 150129Z 09010KT 32/16 A3004 RMK A01 T03240159  RH  037%=      5-min Rain = 0
KAHS 150130Z 08007KT 32/16 A3004 RMK A01 T03240159  RH  037%=      5-min Rain = 0
KAHS 150131Z 09008KT 32/16 A3004 RMK A01 T03240159  RH  037%=      5-min Rain = 0
KAHS 150132Z 09008KT 32/16 A3004 RMK A01 T03230159  RH  037%=      5-min Rain = 0
KAHS 150133Z 08006KT 32/16 A3004 RMK A01 T03230159  RH  037%=      5-min Rain = 0
KAHS 150134Z 09007KT 32/16 A3004 RMK A01 T03220159  RH  038%=      5-min Rain = 0
KAHS 150135Z 09007KT 32/16 A3004 RMK A01 T03220159  RH  037%=      5-min Rain = 0
KAHS 150136Z 09007KT 32/16 A3004 RMK A01 T03220158  RH  037%=      5-min Rain = 0
KAHS 150137Z 09006KT 32/16 A3004 RMK A01 T03220158  RH  037%=      5-min Rain = 0
KAHS 150138Z 09006KT 32/16 A3004 RMK A01 T03210158  RH  038%=      5-min Rain = 0
KAHS 150139Z 09006KT 32/16 A3004 RMK A01 T03210158  RH  038%=      5-min Rain = 0
KAHS 150140Z 09007KT 32/16 A3004 RMK A01 T03200158  RH  038%=      5-min Rain = 0
KAHS 150141Z 09006KT 32/16 A3004 RMK A01 T03200158  RH  038%=      5-min Rain = 0
KAHS 150142Z 09006KT 32/16 A3004 RMK A01 T03200158  RH  038%=      5-min Rain = 0
KAHS 150143Z 10007KT 32/16 A3004 RMK A01 T03190158  RH  038%=      5-min Rain = 0
KAHS 150144Z 09008KT 32/16 A3004 RMK A01 T03190158  RH  038%=      5-min Rain = 0
KAHS 150145Z 09007KT 32/16 A3004 RMK A01 T03190158  RH  038%=      5-min Rain = 0
KAHS 150146Z 10007KT 32/16 A3004 RMK A01 T03190158  RH  038%=      5-min Rain = 0
KAHS 150147Z 10006KT 32/16 A3004 RMK A01 T03190158  RH  038%=      5-min Rain = 0
KAHS 150148Z 09005KT 32/16 A3005 RMK A01 T03190158  RH  038%=      5-min Rain = 0
KAHS 150149Z 09005KT 32/16 A3005 RMK A01 T03180158  RH  038%=      5-min Rain = 0
KAHS 150150Z 09006KT 32/16 A3005 RMK A01 T03170159  RH  038%=      5-min Rain = 0
KAHS 150151Z 09007KT 32/16 A3005 RMK A01 T03170159  RH  039%=      5-min Rain = 0
KAHS 150152Z 10006KT 32/16 A3005 RMK A01 T03170160  RH  039%=      5-min Rain = 0
KAHS 150153Z 09006KT 32/16 A3005 RMK A01 T03170160  RH  039%=      5-min Rain = 0
KAHS 150154Z 09006KT 32/16 A3005 RMK A01 T03170161  RH  039%=      5-min Rain = 0
KAHS 150155Z 09006KT 32/16 A3005 RMK A01 T03170162  RH  039%=      5-min Rain = 0
KAHS 150156Z 10007KT 32/16 A3005 RMK A01 T03170162  RH  039%=      5-min Rain = 0
KAHS 150157Z 09007KT 32/16 A3005 RMK A01 T03170163  RH  040%=      5-min Rain = 0
KAHS 150158Z 08006KT 32/16 A3005 RMK A01 T03170163  RH  040%=      5-min Rain = 0
KAHS 150159Z 09008KT 32/16 A3005 RMK A01 T03170163  RH  040%=      5-min Rain = 0
KAHS 150200Z 09007KT 32/16 A3005 RMK A01 T03170164  RH  040%=      5-min Rain = 0
KAHS 150201Z 09006KT 32/16 A3005 RMK A01 T03180164  RH  040%=      5-min Rain = 0
KAHS 150202Z 09006KT 32/16 A3006 RMK A01 T03170164  RH  040%=      5-min Rain = 0
KAHS 150203Z 09005KT 32/16 A3006 RMK A01 T03170164  RH  040%=      5-min Rain = 0
KAHS 150204Z 09006KT 32/16 A3006 RMK A01 T03160164  RH  040%=      5-min Rain = 0
KAHS 150205Z 09005KT 32/17 A3006 RMK A01 T03160165  RH  040%=      5-min Rain = 0
KAHS 150206Z 09006KT 32/17 A3006 RMK A01 T03150165  RH  040%=      5-min Rain = 0
KAHS 150207Z 09004KT 32/17 A3006 RMK A01 T03150165  RH  041%=      5-min Rain = 0
KAHS 150208Z 09004KT 31/17 A3006 RMK A01 T03140165  RH  041%=      5-min Rain = 0
KAHS 150209Z 09005KT 31/17 A3006 RMK A01 T03130165  RH  041%=      5-min Rain = 0
KAHS 150210Z 09005KT 31/17 A3006 RMK A01 T03130166  RH  041%=      5-min Rain = 0
KAHS 150211Z 09006KT 31/17 A3006 RMK A01 T03130166  RH  041%=      5-min Rain = 0
KAHS 150212Z 08005KT 31/17 A3006 RMK A01 T03120166  RH  041%=      5-min Rain = 0
KAHS 150213Z 08006KT 31/17 A3006 RMK A01 T03120166  RH  041%=      5-min Rain = 0
KAHS 150214Z 09006KT 31/17 A3006 RMK A01 T03110166  RH  042%=      5-min Rain = 0
KAHS 150215Z 08005KT 31/17 A3006 RMK A01 T03110166  RH  042%=      5-min Rain = 0
KAHS 150216Z 08006KT 31/17 A3006 RMK A01 T03100166  RH  042%=      5-min Rain = 0
KAHS 150217Z 08007KT 31/17 A3006 RMK A01 T03100166  RH  042%=      5-min Rain = 0
KAHS 150218Z 08006KT 31/17 A3006 RMK A01 T03090166  RH  042%=      5-min Rain = 0
KAHS 150219Z 08006KT 31/17 A3006 RMK A01 T03090167  RH  042%=      5-min Rain = 0
KAHS 150220Z 08005KT 31/17 A3006 RMK A01 T03090167  RH  042%=      5-min Rain = 0
KAHS 150221Z 08006KT 31/17 A3006 RMK A01 T03080167  RH  043%=      5-min Rain = 0
KAHS 150222Z 08006KT 31/17 A3007 RMK A01 T03080167  RH  043%=      5-min Rain = 0
KAHS 150223Z 08006KT 31/17 A3007 RMK A01 T03080167  RH  043%=      5-min Rain = 0
KAHS 150224Z 09005KT 31/17 A3007 RMK A01 T03080167  RH  043%=      5-min Rain = 0
KAHS 150225Z 09006KT 31/17 A3007 RMK A01 T03080168  RH  043%=      5-min Rain = 0
KAHS 150226Z 09006KT 31/17 A3007 RMK A01 T03080168  RH  043%=      5-min Rain = 0
KAHS 150227Z 09005KT 31/17 A3007 RMK A01 T03080168  RH  043%=      5-min Rain = 0
KAHS 150228Z 09006KT 31/17 A3007 RMK A01 T03080169  RH  043%=      5-min Rain = 0
KAHS 150229Z 10005KT 31/17 A3007 RMK A01 T03080169  RH  043%=      5-min Rain = 0
KAHS 150230Z 09007KT 31/17 A3007 RMK A01 T03080170  RH  044%=      5-min Rain = 0
KAHS 150231Z 09006KT 31/17 A3007 RMK A01 T03090171  RH  043%=      5-min Rain = 0
KAHS 150232Z 09006KT 31/17 A3007 RMK A01 T03100170  RH  043%=      5-min Rain = 0
KAHS 150233Z 09007KT 31/17 A3008 RMK A01 T03100171  RH  043%=      5-min Rain = 0
KAHS 150234Z 09005KT 31/17 A3008 RMK A01 T03100171  RH  043%=      5-min Rain = 0
KAHS 150235Z 09005KT 31/17 A3008 RMK A01 T03090171  RH  043%=      5-min Rain = 0
KAHS 150236Z 08005KT 31/17 A3008 RMK A01 T03080171  RH  044%=      5-min Rain = 0
KAHS 150237Z 09005KT 31/17 A3008 RMK A01 T03070171  RH  044%=      5-min Rain = 0
KAHS 150238Z 09005KT 31/17 A3008 RMK A01 T03070171  RH  044%=      5-min Rain = 0
KAHS 150239Z 08005KT 31/17 A3008 RMK A01 T03060171  RH  044%=      5-min Rain = 0
KAHS 150240Z 09005KT 31/17 A3008 RMK A01 T03050171  RH  044%=      5-min Rain = 0
KAHS 150241Z 08005KT 31/17 A3008 RMK A01 T03050171  RH  044%=      5-min Rain = 0
KAHS 150242Z 09005KT 31/17 A3008 RMK A01 T03050171  RH  045%=      5-min Rain = 0
KAHS 150243Z 09005KT 30/17 A3008 RMK A01 T03040171  RH  045%=      5-min Rain = 0
KAHS 150244Z 09005KT 30/17 A3008 RMK A01 T03040171  RH  045%=      5-min Rain = 0
KAHS 150245Z 09006KT 30/17 A3008 RMK A01 T03040171  RH  045%=      5-min Rain = 0
KAHS 150246Z 09008KT 30/17 A3008 RMK A01 T03040171  RH  045%=      5-min Rain = 0
KAHS 150247Z 08006KT 31/17 A3008 RMK A01 T03050171  RH  045%=      5-min Rain = 0
KAHS 150248Z 10006KT 31/17 A3008 RMK A01 T03050171  RH  045%=      5-min Rain = 0
KAHS 150249Z 09006KT 31/17 A3008 RMK A01 T03050172  RH  045%=      5-min Rain = 0
KAHS 150250Z 09007KT 31/17 A3008 RMK A01 T03050172  RH  045%=      5-min Rain = 0
KAHS 150251Z 10007KT 31/17 A3008 RMK A01 T03060172  RH  045%=      5-min Rain = 0
KAHS 150252Z 10007KT 31/17 A3008 RMK A01 T03060172  RH  045%=      5-min Rain = 0
KAHS 150253Z 09007KT 31/17 A3008 RMK A01 T03060172  RH  044%=      5-min Rain = 0
KAHS 150254Z 09007KT 31/17 A3008 RMK A01 T03070172  RH  044%=      5-min Rain = 0
KAHS 150255Z 09007KT 31/17 A3008 RMK A01 T03070172  RH  044%=      5-min Rain = 0
KAHS 150256Z 09005KT 31/17 A3008 RMK A01 T03070172  RH  045%=      5-min Rain = 0
KAHS 150257Z 10008KT 31/17 A3008 RMK A01 T03060172  RH  045%=      5-min Rain = 0
KAHS 150258Z 09007KT 31/17 A3008 RMK A01 T03060173  RH  045%=      5-min Rain = 0
KAHS 150259Z 09008KT 31/17 A3008 RMK A01 T03060173  RH  045%=      5-min Rain = 0
KAHS 150300Z 09008KT 31/17 A3008 RMK A01 T03050172  RH  045%=      5-min Rain = 0
KAHS 150301Z 09008KT 31/17 A3008 RMK A01 T03060172  RH  045%=      5-min Rain = 0
KAHS 150302Z 08006KT 31/17 A3008 RMK A01 T03060173  RH  045%=      5-min Rain = 0
KAHS 150303Z 09006KT 31/17 A3008 RMK A01 T03050172  RH  045%=      5-min Rain = 0
KAHS 150304Z 09005KT 30/17 A3008 RMK A01 T03040172  RH  045%=      5-min Rain = 0
KAHS 150305Z 09006KT 30/17 A3009 RMK A01 T03030172  RH  046%=      5-min Rain = 0
KAHS 150306Z 10007KT 30/17 A3009 RMK A01 T03020173  RH  046%=      5-min Rain = 0
KAHS 150307Z 09005KT 30/17 A3009 RMK A01 T03020172  RH  046%=      5-min Rain = 0
KAHS 150308Z 09006KT 30/17 A3009 RMK A01 T03020172  RH  046%=      5-min Rain = 0
KAHS 150309Z 09008KT 30/17 A3009 RMK A01 T03020172  RH  046%=      5-min Rain = 0
KAHS 150310Z 09008KT 30/17 A3009 RMK A01 T03020172  RH  046%=      5-min Rain = 0
KAHS 150311Z 10006KT 30/17 A3009 RMK A01 T03020173  RH  046%=      5-min Rain = 0
KAHS 150312Z 09006KT 30/17 A3009 RMK A01 T03020173  RH  046%=      5-min Rain = 0
KAHS 150313Z 09008KT 30/17 A3009 RMK A01 T03020173  RH  046%=      5-min Rain = 0
KAHS 150314Z 10007KT 30/17 A3009 RMK A01 T03020173  RH  046%=      5-min Rain = 0
KAHS 150315Z 10007KT 30/17 A3009 RMK A01 T03030173  RH  046%=      5-min Rain = 0
KAHS 150316Z 08007KT 30/17 A3009 RMK A01 T03030173  RH  046%=      5-min Rain = 0
KAHS 150317Z 09008KT 30/17 A3009 RMK A01 T03030173  RH  046%=      5-min Rain = 0
KAHS 150318Z 09005KT 30/17 A3009 RMK A01 T03030173  RH  046%=      5-min Rain = 0
KAHS 150319Z 10005KT 30/17 A3009 RMK A01 T03020173  RH  046%=      5-min Rain = 0
KAHS 150320Z 09007KT 30/17 A3009 RMK A01 T03010173  RH  046%=      5-min Rain = 0
KAHS 150321Z 09008KT 30/17 A3009 RMK A01 T03010173  RH  046%=      5-min Rain = 0
KAHS 150322Z 09007KT 30/17 A3009 RMK A01 T03020173  RH  046%=      5-min Rain = 0
KAHS 150323Z 09006KT 30/17 A3009 RMK A01 T03020173  RH  046%=      5-min Rain = 0
KAHS 150324Z 09006KT 30/17 A3009 RMK A01 T03010173  RH  046%=      5-min Rain = 0
KAHS 150325Z 10007KT 30/17 A3009 RMK A01 T03010173  RH  046%=      5-min Rain = 0
KAHS 150326Z 10007KT 30/17 A3009 RMK A01 T03010173  RH  046%=      5-min Rain = 0
KAHS 150327Z 10009KT 30/17 A3009 RMK A01 T03010173  RH  046%=      5-min Rain = 0
KAHS 150328Z 09009KT 30/17 A3009 RMK A01 T03020173  RH  046%=      5-min Rain = 0
KAHS 150329Z 10007KT 30/17 A3009 RMK A01 T03020173  RH  046%=      5-min Rain = 0
KAHS 150330Z 10007KT 30/17 A3009 RMK A01 T03020174  RH  046%=      5-min Rain = 0
KAHS 150331Z 10006KT 30/17 A3009 RMK A01 T03020174  RH  046%=      5-min Rain = 0
KAHS 150332Z 10005KT 30/17 A3009 RMK A01 T03010173  RH  046%=      5-min Rain = 0
KAHS 150333Z 10005KT 30/17 A3009 RMK A01 T03010173  RH  046%=      5-min Rain = 0
KAHS 150334Z 10006KT 30/17 A301 RMK A01 T03000174  RH  047%=      5-min Rain = 0
KAHS 150335Z 10005KT 30/17 A301 RMK A01 T03000174  RH  047%=      5-min Rain = 0
KAHS 150336Z 10007KT 30/17 A301 RMK A01 T03000174  RH  047%=      5-min Rain = 0
KAHS 150337Z 10006KT 30/17 A301 RMK A01 T02990174  RH  047%=      5-min Rain = 0
KAHS 150338Z 09007KT 30/17 A301 RMK A01 T03000174  RH  047%=      5-min Rain = 0
KAHS 150339Z 10009KT 30/17 A3009 RMK A01 T03000174  RH  047%=      5-min Rain = 0
KAHS 150340Z 10008KT 30/17 A3009 RMK A01 T03000174  RH  047%=      5-min Rain = 0
KAHS 150341Z 10008KT 30/18 A3009 RMK A01 T03000175  RH  047%=      5-min Rain = 0
KAHS 150342Z 09009KT 30/18 A3009 RMK A01 T03000175  RH  047%=      5-min Rain = 0
KAHS 150343Z 10007KT 30/18 A301 RMK A01 T03000175  RH  047%=      5-min Rain = 0
KAHS 150344Z 10005KT 30/18 A301 RMK A01 T03000175  RH  047%=      5-min Rain = 0
KAHS 150345Z 10006KT 30/18 A301 RMK A01 T03000175  RH  047%=      5-min Rain = 0
KAHS 150346Z 10008KT 30/18 A301 RMK A01 T03000175  RH  047%=      5-min Rain = 0
KAHS 150347Z 10006KT 30/18 A301 RMK A01 T02990175  RH  047%=      5-min Rain = 0
KAHS 150348Z 09007KT 30/18 A301 RMK A01 T02990175  RH  047%=      5-min Rain = 0
KAHS 150349Z 10007KT 30/18 A301 RMK A01 T02980175  RH  048%=      5-min Rain = 0
KAHS 150350Z 09005KT 30/18 A301 RMK A01 T02980175  RH  048%=      5-min Rain = 0
KAHS 150351Z 09006KT 30/18 A301 RMK A01 T02980175  RH  048%=      5-min Rain = 0
KAHS 150352Z 10006KT 30/18 A301 RMK A01 T02970175  RH  048%=      5-min Rain = 0
KAHS 150353Z 09005KT 30/18 A301 RMK A01 T02970175  RH  048%=      5-min Rain = 0
KAHS 150354Z 09005KT 30/18 A301 RMK A01 T02960176  RH  048%=      5-min Rain = 0
KAHS 150355Z 09004KT 30/18 A301 RMK A01 T02960175  RH  048%=      5-min Rain = 0
KAHS 150356Z 09006KT 30/18 A301 RMK A01 T02950175  RH  048%=      5-min Rain = 0
KAHS 150357Z 09006KT 30/18 A301 RMK A01 T02950176  RH  049%=      5-min Rain = 0
KAHS 150358Z 09005KT 30/18 A301 RMK A01 T02950175  RH  048%=      5-min Rain = 0
KAHS 150359Z 08006KT 30/18 A301 RMK A01 T02950176  RH  049%=      5-min Rain = 0
KAHS 150400Z 08005KT 29/18 A301 RMK A01 T02940176  RH  049%=      5-min Rain = 0
KAHS 150401Z 09005KT 29/18 A301 RMK A01 T02940176  RH  049%=      5-min Rain = 0
KAHS 150402Z 08005KT 29/18 A301 RMK A01 T02930175  RH  049%=      5-min Rain = 0
KAHS 150403Z 08005KT 29/18 A301 RMK A01 T02920175  RH  049%=      5-min Rain = 0
KAHS 150404Z 09005KT 29/18 A301 RMK A01 T02920175  RH  049%=      5-min Rain = 0
KAHS 150405Z 09005KT 29/18 A301 RMK A01 T02910176  RH  050%=      5-min Rain = 0
KAHS 150406Z 08005KT 29/18 A301 RMK A01 T02910176  RH  050%=      5-min Rain = 0
KAHS 150407Z 08005KT 29/18 A301 RMK A01 T02900175  RH  050%=      5-min Rain = 0
KAHS 150408Z 09004KT 29/18 A301 RMK A01 T02900175  RH  050%=      5-min Rain = 0
KAHS 150409Z 09005KT 29/18 A301 RMK A01 T02890175  RH  050%=      5-min Rain = 0
KAHS 150410Z 08005KT 29/18 A301 RMK A01 T02890175  RH  050%=      5-min Rain = 0
KAHS 150411Z 08005KT 29/18 A301 RMK A01 T02890176  RH  050%=      5-min Rain = 0
KAHS 150412Z 08006KT 29/18 A301 RMK A01 T02890176  RH  050%=      5-min Rain = 0
KAHS 150413Z 08005KT 29/18 A301 RMK A01 T02890176  RH  050%=      5-min Rain = 0
KAHS 150414Z 09005KT 29/18 A301 RMK A01 T02890176  RH  050%=      5-min Rain = 0
KAHS 150415Z 08005KT 29/18 A301 RMK A01 T02890176  RH  050%=      5-min Rain = 0
KAHS 150416Z 09005KT 29/18 A301 RMK A01 T02890176  RH  051%=      5-min Rain = 0
KAHS 150417Z 09004KT 29/18 A301 RMK A01 T02890176  RH  051%=      5-min Rain = 0
KAHS 150418Z 09006KT 29/18 A301 RMK A01 T02880176  RH  051%=      5-min Rain = 0
KAHS 150419Z 10005KT 29/18 A301 RMK A01 T02880176  RH  051%=      5-min Rain = 0
KAHS 150420Z 09004KT 29/18 A301 RMK A01 T02880176  RH  051%=      5-min Rain = 0
KAHS 150421Z 09005KT 29/18 A301 RMK A01 T02870176  RH  051%=      5-min Rain = 0
KAHS 150422Z 08005KT 29/18 A301 RMK A01 T02870176  RH  051%=      5-min Rain = 0
KAHS 150423Z 08006KT 29/18 A301 RMK A01 T02870176  RH  051%=      5-min Rain = 0
KAHS 150424Z 07005KT 29/18 A301 RMK A01 T02870177  RH  051%=      5-min Rain = 0
KAHS 150425Z 08005KT 29/18 A301 RMK A01 T02880177  RH  051%=      5-min Rain = 0
KAHS 150426Z 08006KT 29/18 A301 RMK A01 T02880177  RH  051%=      5-min Rain = 0
KAHS 150427Z 08005KT 29/18 A301 RMK A01 T02870177  RH  051%=      5-min Rain = 0
KAHS 150428Z 08005KT 29/18 A301 RMK A01 T02870177  RH  052%=      5-min Rain = 0
KAHS 150429Z 08004KT 29/18 A301 RMK A01 T02870177  RH  052%=      5-min Rain = 0
KAHS 150430Z 08005KT 29/18 A301 RMK A01 T02860177  RH  052%=      5-min Rain = 0
KAHS 150431Z 09004KT 29/18 A301 RMK A01 T02860177  RH  052%=      5-min Rain = 0
KAHS 150432Z 09005KT 29/18 A301 RMK A01 T02860177  RH  052%=      5-min Rain = 0
KAHS 150433Z 09006KT 29/18 A301 RMK A01 T02860177  RH  052%=      5-min Rain = 0
KAHS 150434Z 09005KT 29/18 A301 RMK A01 T02860178  RH  052%=      5-min Rain = 0
KAHS 150435Z 09005KT 29/18 A301 RMK A01 T02860178  RH  052%=      5-min Rain = 0
KAHS 150436Z 09005KT 29/18 A301 RMK A01 T02850178  RH  052%=      5-min Rain = 0
KAHS 150437Z 09005KT 29/18 A301 RMK A01 T02850178  RH  052%=      5-min Rain = 0
KAHS 150438Z 09005KT 29/18 A301 RMK A01 T02850178  RH  052%=      5-min Rain = 0
KAHS 150439Z 09004KT 29/18 A301 RMK A01 T02850178  RH  052%=      5-min Rain = 0
KAHS 150440Z 09006KT 29/18 A301 RMK A01 T02850178  RH  052%=      5-min Rain = 0
KAHS 150441Z 09005KT 29/18 A301 RMK A01 T02850179  RH  053%=      5-min Rain = 0
KAHS 150442Z 08005KT 29/18 A301 RMK A01 T02850179  RH  053%=      5-min Rain = 0
KAHS 150443Z 09005KT 29/18 A301 RMK A01 T02850179  RH  053%=      5-min Rain = 0
KAHS 150444Z 09005KT 28/18 A301 RMK A01 T02840179  RH  053%=      5-min Rain = 0
KAHS 150445Z 09005KT 28/18 A301 RMK A01 T02840179  RH  053%=      5-min Rain = 0
KAHS 150446Z 09004KT 28/18 A3011 RMK A01 T02830179  RH  053%=      5-min Rain = 0
KAHS 150447Z 09005KT 28/18 A3011 RMK A01 T02830179  RH  053%=      5-min Rain = 0
KAHS 150448Z 09006KT 28/18 A301 RMK A01 T02830179  RH  053%=      5-min Rain = 0
KAHS 150449Z 09006KT 28/18 A301 RMK A01 T02830179  RH  053%=      5-min Rain = 0
KAHS 150450Z 09006KT 28/18 A301 RMK A01 T02840180  RH  053%=      5-min Rain = 0
KAHS 150451Z 09006KT 28/18 A301 RMK A01 T02840180  RH  053%=      5-min Rain = 0
KAHS 150452Z 09006KT 28/18 A301 RMK A01 T02840180  RH  053%=      5-min Rain = 0
KAHS 150453Z 09005KT 28/18 A301 RMK A01 T02840180  RH  053%=      5-min Rain = 0
KAHS 150454Z 09006KT 28/18 A3011 RMK A01 T02840180  RH  053%=      5-min Rain = 0
KAHS 150455Z 10006KT 29/18 A3011 RMK A01 T02850180  RH  053%=      5-min Rain = 0
KAHS 150456Z 09005KT 28/18 A3011 RMK A01 T02840180  RH  053%=      5-min Rain = 0
KAHS 150457Z 10005KT 28/18 A3011 RMK A01 T02840180  RH  053%=      5-min Rain = 0
KAHS 150458Z 09004KT 28/18 A301 RMK A01 T02840180  RH  053%=      5-min Rain = 0
KAHS 150459Z 09005KT 28/18 A301 RMK A01 T02830180  RH  054%=      5-min Rain = 0

Page generated in 0.1223 seconds.